PWSweather.com
Personal Weather Stations
Station Observations
EI4HQ
Cork Harbour, CobhIE

Cork HarbourCobhIE

Lat: 51.85, Lon: -8.29

Elevation: 252

Station Type: Davis Vantage Pro2

http://www.corkharbourweather.ie

High Low Average
Temperature 52.7°F11.5°C 41.7°F5.4°C 45.8°F7.7°C
Dew Point 45.9°F7.7°C 40.5°F4.7°C 42.5°F5.8°C
Winds 13.0 mph 20.9 kmh 1.0 mph 1.6 kmh 6.0 mph E9.7 kmh E
Wind Gusts 24.0 mph38.6 kmh 3.0 mph4.8 kmh 12.0 mph19.3 kmh
Humidity 95% 75% 88%
Pressure 29.85 in1010.8 mb 29.69 in1005.4 mb -
Precipitation 0.35 in8.9 mm - -
Hour Temp Dew Point Humidity Winds Wind Gusts Pressure Precip Precip Rate Daily Precip Total
12:00 AM 43.5°F6.4°C 41.5°F5.3°C 93% 5.0 mph NE8.0 kmh NE 8.0 mph12.9 kmh 29.82 in1009.8 mb 0.04 in1.0 mm 0.00 in0.0 mm 0.04 in1.0 mm
12:03 AM 43.5°F6.4°C 41.5°F5.3°C 93% 4.0 mph NE6.4 kmh NE 8.0 mph12.9 kmh 29.82 in1009.8 mb 0.05 in1.3 mm 0.20 in5.1 mm 0.05 in1.3 mm
12:06 AM 43.5°F6.4°C 41.5°F5.3°C 93% 5.0 mph NE8.0 kmh NE 9.0 mph14.5 kmh 29.82 in1009.8 mb 0.05 in1.3 mm 0.00 in0.0 mm 0.05 in1.3 mm
12:09 AM 43.3°F6.3°C 41.5°F5.3°C 93% 5.0 mph NE8.0 kmh NE 9.0 mph14.5 kmh 29.82 in1009.8 mb 0.05 in1.3 mm 0.00 in0.0 mm 0.05 in1.3 mm
12:12 AM 43.3°F6.3°C 41.5°F5.3°C 93% 5.0 mph NE8.0 kmh NE 9.0 mph14.5 kmh 29.82 in1009.8 mb 0.05 in1.3 mm 0.00 in0.0 mm 0.05 in1.3 mm
12:15 AM 43.3°F6.3°C 41.5°F5.3°C 93% 4.0 mph NE6.4 kmh NE 9.0 mph14.5 kmh 29.82 in1009.8 mb 0.06 in1.5 mm 0.20 in5.1 mm 0.06 in1.5 mm
12:18 AM 43.3°F6.3°C 41.5°F5.3°C 93% 3.0 mph NE4.8 kmh NE 8.0 mph12.9 kmh 29.81 in1009.5 mb 0.06 in1.5 mm 0.00 in0.0 mm 0.06 in1.5 mm
12:21 AM 43.3°F6.3°C 41.5°F5.3°C 93% 3.0 mph NE4.8 kmh NE 6.0 mph9.7 kmh 29.81 in1009.5 mb 0.06 in1.5 mm 0.00 in0.0 mm 0.06 in1.5 mm
12:24 AM 43.3°F6.3°C 41.5°F5.3°C 93% 3.0 mph NE4.8 kmh NE 5.0 mph8.0 kmh 29.81 in1009.5 mb 0.06 in1.5 mm 0.00 in0.0 mm 0.06 in1.5 mm
12:27 AM 43.3°F6.3°C 41.5°F5.3°C 93% 3.0 mph NE4.8 kmh NE 5.0 mph8.0 kmh 29.81 in1009.5 mb 0.06 in1.5 mm 0.00 in0.0 mm 0.06 in1.5 mm
12:30 AM 43.3°F6.3°C 41.5°F5.3°C 93% 3.0 mph NE4.8 kmh NE 5.0 mph8.0 kmh 29.81 in1009.5 mb 0.06 in1.5 mm 0.00 in0.0 mm 0.06 in1.5 mm
12:33 AM 43.3°F6.3°C 41.5°F5.3°C 93% 3.0 mph NE4.8 kmh NE 5.0 mph8.0 kmh 29.81 in1009.5 mb 0.06 in1.5 mm 0.00 in0.0 mm 0.07 in1.8 mm
12:36 AM 43.5°F6.4°C 41.9°F5.5°C 94% 3.0 mph NE4.8 kmh NE 5.0 mph8.0 kmh 29.81 in1009.5 mb 0.06 in1.5 mm 0.00 in0.0 mm 0.08 in2.0 mm
12:39 AM 43.3°F6.3°C 41.7°F5.4°C 94% 2.0 mph NE3.2 kmh NE 5.0 mph8.0 kmh 29.80 in1009.1 mb 0.06 in1.5 mm 0.00 in0.0 mm 0.08 in2.0 mm
12:42 AM 43.5°F6.4°C 41.9°F5.5°C 94% 2.0 mph NE3.2 kmh NE 5.0 mph8.0 kmh 29.80 in1009.1 mb 0.06 in1.5 mm 0.00 in0.0 mm 0.08 in2.0 mm
12:45 AM 43.5°F6.4°C 41.9°F5.5°C 94% 2.0 mph NE3.2 kmh NE 4.0 mph6.4 kmh 29.80 in1009.1 mb 0.07 in1.8 mm 0.20 in5.1 mm 0.09 in2.3 mm
12:48 AM 43.5°F6.4°C 41.9°F5.5°C 94% 2.0 mph NE3.2 kmh NE 4.0 mph6.4 kmh 29.80 in1009.1 mb 0.06 in1.5 mm 0.00 in0.0 mm 0.09 in2.3 mm
12:51 AM 43.5°F6.4°C 41.9°F5.5°C 94% 2.0 mph ENE3.2 kmh ENE 3.0 mph4.8 kmh 29.80 in1009.1 mb 0.06 in1.5 mm 0.00 in0.0 mm 0.09 in2.3 mm
12:54 AM 43.5°F6.4°C 41.9°F5.5°C 94% 1.0 mph ENE1.6 kmh ENE 3.0 mph4.8 kmh 29.80 in1009.1 mb 0.06 in1.5 mm 0.00 in0.0 mm 0.09 in2.3 mm
12:57 AM 43.5°F6.4°C 41.9°F5.5°C 94% 1.0 mph ENE1.6 kmh ENE 4.0 mph6.4 kmh 29.80 in1009.1 mb 0.06 in1.5 mm 0.00 in0.0 mm 0.10 in2.5 mm
01:00 AM 43.5°F6.4°C 41.9°F5.5°C 94% 1.0 mph ENE1.6 kmh ENE 4.0 mph6.4 kmh 29.79 in1008.8 mb 0.06 in1.5 mm 0.00 in0.0 mm 0.10 in2.5 mm
01:03 AM 43.5°F6.4°C 41.9°F5.5°C 94% 2.0 mph ENE3.2 kmh ENE 4.0 mph6.4 kmh 29.79 in1008.8 mb 0.06 in1.5 mm 0.00 in0.0 mm 0.11 in2.8 mm
01:06 AM 43.5°F6.4°C 41.9°F5.5°C 94% 2.0 mph E3.2 kmh E 4.0 mph6.4 kmh 29.79 in1008.8 mb 0.06 in1.5 mm 0.00 in0.0 mm 0.11 in2.8 mm
01:09 AM 43.5°F6.4°C 41.9°F5.5°C 94% 2.0 mph E3.2 kmh E 7.0 mph11.3 kmh 29.79 in1008.8 mb 0.06 in1.5 mm 0.00 in0.0 mm 0.11 in2.8 mm
01:12 AM 43.5°F6.4°C 41.9°F5.5°C 94% 3.0 mph E4.8 kmh E 8.0 mph12.9 kmh 29.79 in1008.8 mb 0.06 in1.5 mm 0.00 in0.0 mm 0.11 in2.8 mm
01:15 AM 43.3°F6.3°C 41.7°F5.4°C 94% 4.0 mph E6.4 kmh E 8.0 mph12.9 kmh 29.79 in1008.8 mb 0.06 in1.5 mm 0.00 in0.0 mm 0.11 in2.8 mm
01:18 AM 43.3°F6.3°C 41.7°F5.4°C 94% 4.0 mph E6.4 kmh E 8.0 mph12.9 kmh 29.79 in1008.8 mb 0.06 in1.5 mm 0.00 in0.0 mm 0.12 in3.0 mm
01:21 AM 43.3°F6.3°C 41.7°F5.4°C 94% 4.0 mph E6.4 kmh E 8.0 mph12.9 kmh 29.78 in1008.5 mb 0.06 in1.5 mm 0.00 in0.0 mm 0.12 in3.0 mm
01:24 AM 43.3°F6.3°C 41.7°F5.4°C 94% 4.0 mph E6.4 kmh E 8.0 mph12.9 kmh 29.78 in1008.5 mb 0.06 in1.5 mm 0.00 in0.0 mm 0.12 in3.0 mm
01:27 AM 43.3°F6.3°C 41.7°F5.4°C 94% 3.0 mph E4.8 kmh E 8.0 mph12.9 kmh 29.78 in1008.5 mb 0.06 in1.5 mm 0.00 in0.0 mm 0.13 in3.3 mm
01:30 AM 43.3°F6.3°C 41.7°F5.4°C 94% 3.0 mph E4.8 kmh E 8.0 mph12.9 kmh 29.78 in1008.5 mb 0.06 in1.5 mm 0.00 in0.0 mm 0.13 in3.3 mm
01:33 AM 43.3°F6.3°C 41.7°F5.4°C 94% 3.0 mph E4.8 kmh E 8.0 mph12.9 kmh 29.78 in1008.5 mb 0.06 in1.5 mm 0.00 in0.0 mm 0.13 in3.3 mm
01:36 AM 43.3°F6.3°C 41.7°F5.4°C 94% 2.0 mph E3.2 kmh E 7.0 mph11.3 kmh 29.78 in1008.5 mb 0.05 in1.3 mm 0.00 in0.0 mm 0.13 in3.3 mm
01:39 AM 43.3°F6.3°C 41.7°F5.4°C 94% 3.0 mph E4.8 kmh E 8.0 mph12.9 kmh 29.78 in1008.5 mb 0.05 in1.3 mm 0.00 in0.0 mm 0.13 in3.3 mm
01:42 AM 43.2°F6.2°C 41.5°F5.3°C 94% 4.0 mph E6.4 kmh E 8.0 mph12.9 kmh 29.77 in1008.1 mb 0.05 in1.3 mm 0.00 in0.0 mm 0.13 in3.3 mm
01:45 AM 43.2°F6.2°C 41.5°F5.3°C 94% 4.0 mph E6.4 kmh E 8.0 mph12.9 kmh 29.77 in1008.1 mb 0.05 in1.3 mm 0.00 in0.0 mm 0.13 in3.3 mm
01:48 AM 43.2°F6.2°C 41.5°F5.3°C 94% 4.0 mph E6.4 kmh E 8.0 mph12.9 kmh 29.77 in1008.1 mb 0.04 in1.0 mm 0.00 in0.0 mm 0.13 in3.3 mm
01:51 AM 43.2°F6.2°C 41.5°F5.3°C 94% 3.0 mph E4.8 kmh E 8.0 mph12.9 kmh 29.77 in1008.1 mb 0.05 in1.3 mm 0.20 in5.1 mm 0.14 in3.6 mm
01:54 AM 43.2°F6.2°C 41.5°F5.3°C 94% 3.0 mph E4.8 kmh E 7.0 mph11.3 kmh 29.77 in1008.1 mb 0.05 in1.3 mm 0.00 in0.0 mm 0.14 in3.6 mm
01:57 AM 43.0°F6.1°C 41.4°F5.2°C 94% 3.0 mph E4.8 kmh E 7.0 mph11.3 kmh 29.77 in1008.1 mb 0.05 in1.3 mm 0.00 in0.0 mm 0.15 in3.8 mm
02:00 AM 43.0°F6.1°C 41.4°F5.2°C 94% 4.0 mph E6.4 kmh E 8.0 mph12.9 kmh 29.76 in1007.8 mb 0.04 in1.0 mm 0.00 in0.0 mm 0.15 in3.8 mm
02:03 AM 43.0°F6.1°C 41.7°F5.4°C 95% 4.0 mph E6.4 kmh E 9.0 mph14.5 kmh 29.76 in1007.8 mb 0.04 in1.0 mm 0.00 in0.0 mm 0.15 in3.8 mm
02:06 AM 43.0°F6.1°C 41.4°F5.2°C 94% 4.0 mph E6.4 kmh E 9.0 mph14.5 kmh 29.76 in1007.8 mb 0.05 in1.3 mm 0.20 in5.1 mm 0.16 in4.1 mm
02:09 AM 43.0°F6.1°C 41.7°F5.4°C 95% 4.0 mph E6.4 kmh E 9.0 mph14.5 kmh 29.76 in1007.8 mb 0.05 in1.3 mm 0.00 in0.0 mm 0.16 in4.1 mm
02:12 AM 43.0°F6.1°C 41.4°F5.2°C 94% 4.0 mph ENE6.4 kmh ENE 9.0 mph14.5 kmh 29.75 in1007.5 mb 0.05 in1.3 mm 0.00 in0.0 mm 0.16 in4.1 mm
02:15 AM 43.0°F6.1°C 41.4°F5.2°C 94% 3.0 mph ENE4.8 kmh ENE 9.0 mph14.5 kmh 29.75 in1007.5 mb 0.06 in1.5 mm 0.20 in5.1 mm 0.17 in4.3 mm
02:18 AM 43.0°F6.1°C 41.4°F5.2°C 94% 3.0 mph ENE4.8 kmh ENE 8.0 mph12.9 kmh 29.75 in1007.5 mb 0.06 in1.5 mm 0.00 in0.0 mm 0.17 in4.3 mm
02:21 AM 43.0°F6.1°C 41.7°F5.4°C 95% 3.0 mph ENE4.8 kmh ENE 8.0 mph12.9 kmh 29.75 in1007.5 mb 0.06 in1.5 mm 0.00 in0.0 mm 0.17 in4.3 mm
02:24 AM 43.0°F6.1°C 41.7°F5.4°C 95% 3.0 mph ENE4.8 kmh ENE 8.0 mph12.9 kmh 29.75 in1007.5 mb 0.05 in1.3 mm 0.00 in0.0 mm 0.17 in4.3 mm
02:27 AM 43.0°F6.1°C 41.4°F5.2°C 94% 3.0 mph NE4.8 kmh NE 8.0 mph12.9 kmh 29.75 in1007.5 mb 0.05 in1.3 mm 0.00 in0.0 mm 0.17 in4.3 mm
02:30 AM 43.0°F6.1°C 41.4°F5.2°C 94% 3.0 mph NE4.8 kmh NE 7.0 mph11.3 kmh 29.75 in1007.5 mb 0.05 in1.3 mm 0.00 in0.0 mm 0.17 in4.3 mm
02:33 AM 43.0°F6.1°C 41.4°F5.2°C 94% 4.0 mph NE6.4 kmh NE 8.0 mph12.9 kmh 29.75 in1007.5 mb 0.05 in1.3 mm 0.00 in0.0 mm 0.17 in4.3 mm
02:36 AM 43.0°F6.1°C 41.5°F5.3°C 95% 4.0 mph NE6.4 kmh NE 9.0 mph14.5 kmh 29.75 in1007.5 mb 0.06 in1.5 mm 0.20 in5.1 mm 0.18 in4.6 mm
02:39 AM 43.0°F6.1°C 41.7°F5.4°C 95% 4.0 mph NE6.4 kmh NE 9.0 mph14.5 kmh 29.75 in1007.5 mb 0.06 in1.5 mm 0.00 in0.0 mm 0.18 in4.6 mm
02:42 AM 43.0°F6.1°C 41.7°F5.4°C 95% 3.0 mph NE4.8 kmh NE 9.0 mph14.5 kmh 29.75 in1007.5 mb 0.06 in1.5 mm 0.00 in0.0 mm 0.19 in4.8 mm
02:45 AM 43.0°F6.1°C 41.7°F5.4°C 95% 3.0 mph NE4.8 kmh NE 9.0 mph14.5 kmh 29.75 in1007.5 mb 0.06 in1.5 mm 0.00 in0.0 mm 0.19 in4.8 mm
02:48 AM 43.0°F6.1°C 41.7°F5.4°C 95% 4.0 mph NE6.4 kmh NE 9.0 mph14.5 kmh 29.75 in1007.5 mb 0.06 in1.5 mm 0.00 in0.0 mm 0.19 in4.8 mm
02:51 AM 43.0°F6.1°C 41.7°F5.4°C 95% 4.0 mph NE6.4 kmh NE 9.0 mph14.5 kmh 29.75 in1007.5 mb 0.05 in1.3 mm 0.00 in0.0 mm 0.19 in4.8 mm
02:54 AM 43.0°F6.1°C 41.7°F5.4°C 95% 4.0 mph NE6.4 kmh NE 10.0 mph16.1 kmh 29.75 in1007.5 mb 0.05 in1.3 mm 0.00 in0.0 mm 0.19 in4.8 mm
02:57 AM 43.0°F6.1°C 41.7°F5.4°C 95% 4.0 mph ENE6.4 kmh ENE 10.0 mph16.1 kmh 29.74 in1007.1 mb 0.04 in1.0 mm 0.00 in0.0 mm 0.19 in4.8 mm
03:00 AM 43.0°F6.1°C 41.7°F5.4°C 95% 4.0 mph ENE6.4 kmh ENE 10.0 mph16.1 kmh 29.74 in1007.1 mb 0.05 in1.3 mm 0.01 in0.3 mm 0.20 in5.1 mm
03:03 AM 43.0°F6.1°C 41.5°F5.3°C 95% 5.0 mph ENE8.0 kmh ENE 10.0 mph16.1 kmh 29.74 in1007.1 mb 0.04 in1.0 mm 0.00 in0.0 mm 0.20 in5.1 mm
03:06 AM 42.8°F6.0°C 41.5°F5.3°C 95% 4.0 mph ENE6.4 kmh ENE 10.0 mph16.1 kmh 29.74 in1007.1 mb 0.05 in1.3 mm 0.20 in5.1 mm 0.20 in5.1 mm
03:09 AM 42.6°F5.9°C 41.4°F5.2°C 95% 4.0 mph ENE6.4 kmh ENE 10.0 mph16.1 kmh 29.74 in1007.1 mb 0.05 in1.3 mm 0.00 in0.0 mm 0.20 in5.1 mm
03:12 AM 42.6°F5.9°C 41.2°F5.1°C 95% 3.0 mph ENE4.8 kmh ENE 10.0 mph16.1 kmh 29.74 in1007.1 mb 0.06 in1.5 mm 0.20 in5.1 mm 0.21 in5.3 mm
03:15 AM 42.4°F5.8°C 41.2°F5.1°C 95% 3.0 mph ENE4.8 kmh ENE 8.0 mph12.9 kmh 29.74 in1007.1 mb 0.06 in1.5 mm 0.00 in0.0 mm 0.22 in5.6 mm
03:18 AM 42.4°F5.8°C 41.2°F5.1°C 95% 4.0 mph ENE6.4 kmh ENE 11.0 mph17.7 kmh 29.74 in1007.1 mb 0.05 in1.3 mm 0.00 in0.0 mm 0.22 in5.6 mm
03:21 AM 42.4°F5.8°C 41.2°F5.1°C 95% 4.0 mph ENE6.4 kmh ENE 11.0 mph17.7 kmh 29.74 in1007.1 mb 0.05 in1.3 mm 0.00 in0.0 mm 0.22 in5.6 mm
03:24 AM 42.4°F5.8°C 41.0°F5.0°C 95% 4.0 mph ENE6.4 kmh ENE 11.0 mph17.7 kmh 29.73 in1006.8 mb 0.05 in1.3 mm 0.00 in0.0 mm 0.22 in5.6 mm
03:27 AM 42.4°F5.8°C 41.0°F5.0°C 95% 3.0 mph ENE4.8 kmh ENE 8.0 mph12.9 kmh 29.73 in1006.8 mb 0.06 in1.5 mm 0.20 in5.1 mm 0.23 in5.8 mm
03:30 AM 42.4°F5.8°C 41.0°F5.0°C 95% 4.0 mph ENE6.4 kmh ENE 11.0 mph17.7 kmh 29.73 in1006.8 mb 0.06 in1.5 mm 0.00 in0.0 mm 0.23 in5.8 mm
03:33 AM 42.4°F5.8°C 41.0°F5.0°C 95% 4.0 mph ENE6.4 kmh ENE 11.0 mph17.7 kmh 29.73 in1006.8 mb 0.06 in1.5 mm 0.00 in0.0 mm 0.24 in6.1 mm
03:36 AM 42.4°F5.8°C 41.0°F5.0°C 95% 5.0 mph NE8.0 kmh NE 13.0 mph20.9 kmh 29.73 in1006.8 mb 0.06 in1.5 mm 0.00 in0.0 mm 0.24 in6.1 mm
03:39 AM 42.4°F5.8°C 41.0°F5.0°C 95% 5.0 mph NE8.0 kmh NE 13.0 mph20.9 kmh 29.73 in1006.8 mb 0.06 in1.5 mm 0.00 in0.0 mm 0.24 in6.1 mm
03:42 AM 42.4°F5.8°C 41.2°F5.1°C 95% 5.0 mph NE8.0 kmh NE 13.0 mph20.9 kmh 29.73 in1006.8 mb 0.06 in1.5 mm 0.00 in0.0 mm 0.24 in6.1 mm
03:45 AM 42.4°F5.8°C 41.2°F5.1°C 95% 4.0 mph NE6.4 kmh NE 10.0 mph16.1 kmh 29.72 in1006.4 mb 0.06 in1.5 mm 0.00 in0.0 mm 0.24 in6.1 mm
03:48 AM 42.4°F5.8°C 41.2°F5.1°C 95% 4.0 mph NE6.4 kmh NE 10.0 mph16.1 kmh 29.72 in1006.4 mb 0.06 in1.5 mm 0.00 in0.0 mm 0.25 in6.4 mm
03:51 AM 42.4°F5.8°C 41.2°F5.1°C 95% 4.0 mph NE6.4 kmh NE 10.0 mph16.1 kmh 29.72 in1006.4 mb 0.06 in1.5 mm 0.00 in0.0 mm 0.25 in6.4 mm
03:54 AM 42.4°F5.8°C 41.2°F5.1°C 95% 4.0 mph NE6.4 kmh NE 10.0 mph16.1 kmh 29.72 in1006.4 mb 0.06 in1.5 mm 0.00 in0.0 mm 0.25 in6.4 mm
03:57 AM 42.4°F5.8°C 41.2°F5.1°C 95% 4.0 mph NE6.4 kmh NE 9.0 mph14.5 kmh 29.72 in1006.4 mb 0.06 in1.5 mm 0.00 in0.0 mm 0.25 in6.4 mm
04:00 AM 42.4°F5.8°C 41.2°F5.1°C 95% 4.0 mph ENE6.4 kmh ENE 10.0 mph16.1 kmh 29.71 in1006.1 mb 0.06 in1.5 mm 0.00 in0.0 mm 0.25 in6.4 mm
04:03 AM 42.4°F5.8°C 41.2°F5.1°C 95% 4.0 mph ENE6.4 kmh ENE 10.0 mph16.1 kmh 29.71 in1006.1 mb 0.06 in1.5 mm 0.00 in0.0 mm 0.26 in6.6 mm
04:06 AM 42.4°F5.8°C 41.2°F5.1°C 95% 4.0 mph ENE6.4 kmh ENE 10.0 mph16.1 kmh 29.71 in1006.1 mb 0.06 in1.5 mm 0.00 in0.0 mm 0.26 in6.6 mm
04:09 AM 42.4°F5.8°C 41.2°F5.1°C 95% 4.0 mph ENE6.4 kmh ENE 9.0 mph14.5 kmh 29.71 in1006.1 mb 0.06 in1.5 mm 0.00 in0.0 mm 0.26 in6.6 mm
04:12 AM 42.4°F5.8°C 41.0°F5.0°C 95% 4.0 mph ENE6.4 kmh ENE 9.0 mph14.5 kmh 29.71 in1006.1 mb 0.05 in1.3 mm 0.00 in0.0 mm 0.26 in6.6 mm
04:15 AM 42.4°F5.8°C 41.0°F5.0°C 95% 4.0 mph ENE6.4 kmh ENE 9.0 mph14.5 kmh 29.71 in1006.1 mb 0.04 in1.0 mm 0.00 in0.0 mm 0.26 in6.6 mm
04:18 AM 42.3°F5.7°C 41.0°F5.0°C 95% 4.0 mph ENE6.4 kmh ENE 10.0 mph16.1 kmh 29.71 in1006.1 mb 0.04 in1.0 mm 0.00 in0.0 mm 0.26 in6.6 mm
04:21 AM 42.3°F5.7°C 40.8°F4.9°C 95% 5.0 mph ENE8.0 kmh ENE 12.0 mph19.3 kmh 29.71 in1006.1 mb 0.04 in1.0 mm 0.00 in0.0 mm 0.26 in6.6 mm
04:24 AM 42.1°F5.6°C 40.8°F4.9°C 95% 5.0 mph ENE8.0 kmh ENE 12.0 mph19.3 kmh 29.71 in1006.1 mb 0.05 in1.3 mm 0.20 in5.1 mm 0.27 in6.9 mm
04:27 AM 42.1°F5.6°C 40.6°F4.8°C 95% 5.0 mph ENE8.0 kmh ENE 12.0 mph19.3 kmh 29.71 in1006.1 mb 0.04 in1.0 mm 0.00 in0.0 mm 0.27 in6.9 mm
04:30 AM 42.1°F5.6°C 40.6°F4.8°C 95% 5.0 mph ENE8.0 kmh ENE 12.0 mph19.3 kmh 29.70 in1005.8 mb 0.03 in0.8 mm 0.00 in0.0 mm 0.27 in6.9 mm
04:33 AM 42.1°F5.6°C 40.6°F4.8°C 95% 4.0 mph ENE6.4 kmh ENE 10.0 mph16.1 kmh 29.70 in1005.8 mb 0.03 in0.8 mm 0.00 in0.0 mm 0.27 in6.9 mm
04:36 AM 42.1°F5.6°C 40.6°F4.8°C 95% 5.0 mph ENE8.0 kmh ENE 11.0 mph17.7 kmh 29.70 in1005.8 mb 0.03 in0.8 mm 0.00 in0.0 mm 0.27 in6.9 mm
04:39 AM 42.1°F5.6°C 40.6°F4.8°C 95% 5.0 mph ENE8.0 kmh ENE 11.0 mph17.7 kmh 29.70 in1005.8 mb 0.02 in0.5 mm 0.00 in0.0 mm 0.27 in6.9 mm
04:42 AM 41.9°F5.5°C 40.6°F4.8°C 95% 5.0 mph ENE8.0 kmh ENE 11.0 mph17.7 kmh 29.70 in1005.8 mb 0.02 in0.5 mm 0.00 in0.0 mm 0.27 in6.9 mm
04:45 AM 41.7°F5.4°C 40.5°F4.7°C 95% 5.0 mph ENE8.0 kmh ENE 10.0 mph16.1 kmh 29.70 in1005.8 mb 0.02 in0.5 mm 0.00 in0.0 mm 0.27 in6.9 mm
04:48 AM 41.7°F5.4°C 40.5°F4.7°C 95% 4.0 mph ENE6.4 kmh ENE 11.0 mph17.7 kmh 29.70 in1005.8 mb 0.02 in0.5 mm 0.00 in0.0 mm 0.27 in6.9 mm
04:51 AM 41.7°F5.4°C 40.5°F4.7°C 95% 5.0 mph ENE8.0 kmh ENE 13.0 mph20.9 kmh 29.70 in1005.8 mb 0.02 in0.5 mm 0.00 in0.0 mm 0.27 in6.9 mm
04:54 AM 41.7°F5.4°C 40.5°F4.7°C 95% 5.0 mph ENE8.0 kmh ENE 13.0 mph20.9 kmh 29.70 in1005.8 mb 0.02 in0.5 mm 0.00 in0.0 mm 0.27 in6.9 mm
04:57 AM 41.7°F5.4°C 40.5°F4.7°C 95% 5.0 mph ENE8.0 kmh ENE 13.0 mph20.9 kmh 29.70 in1005.8 mb 0.02 in0.5 mm 0.00 in0.0 mm 0.28 in7.1 mm
05:00 AM 41.7°F5.4°C 40.5°F4.7°C 95% 5.0 mph ENE8.0 kmh ENE 13.0 mph20.9 kmh 29.70 in1005.8 mb 0.02 in0.5 mm 0.00 in0.0 mm 0.28 in7.1 mm
05:03 AM 41.7°F5.4°C 40.5°F4.7°C 95% 5.0 mph ENE8.0 kmh ENE 11.0 mph17.7 kmh 29.69 in1005.4 mb 0.02 in0.5 mm 0.00 in0.0 mm 0.28 in7.1 mm
05:06 AM 41.9°F5.5°C 40.6°F4.8°C 95% 5.0 mph NE8.0 kmh NE 11.0 mph17.7 kmh 29.69 in1005.4 mb 0.02 in0.5 mm 0.00 in0.0 mm 0.28 in7.1 mm
05:09 AM 41.9°F5.5°C 40.6°F4.8°C 95% 5.0 mph NE8.0 kmh NE 11.0 mph17.7 kmh 29.69 in1005.4 mb 0.02 in0.5 mm 0.00 in0.0 mm 0.28 in7.1 mm
05:12 AM 42.1°F5.6°C 40.6°F4.8°C 95% 5.0 mph NE8.0 kmh NE 11.0 mph17.7 kmh 29.70 in1005.8 mb 0.02 in0.5 mm 0.00 in0.0 mm 0.28 in7.1 mm
05:15 AM 42.1°F5.6°C 40.8°F4.9°C 95% 5.0 mph NE8.0 kmh NE 11.0 mph17.7 kmh 29.69 in1005.4 mb 0.02 in0.5 mm 0.00 in0.0 mm 0.28 in7.1 mm
05:18 AM 42.1°F5.6°C 40.8°F4.9°C 95% 6.0 mph NE9.7 kmh NE 12.0 mph19.3 kmh 29.69 in1005.4 mb 0.02 in0.5 mm 0.00 in0.0 mm 0.28 in7.1 mm
05:21 AM 42.1°F5.6°C 40.8°F4.9°C 95% 6.0 mph NE9.7 kmh NE 12.0 mph19.3 kmh 29.69 in1005.4 mb 0.02 in0.5 mm 0.00 in0.0 mm 0.28 in7.1 mm
05:24 AM 42.3°F5.7°C 40.8°F4.9°C 95% 5.0 mph NE8.0 kmh NE 12.0 mph19.3 kmh 29.69 in1005.4 mb 0.02 in0.5 mm 0.00 in0.0 mm 0.28 in7.1 mm
05:27 AM 42.3°F5.7°C 41.0°F5.0°C 95% 5.0 mph NE8.0 kmh NE 12.0 mph19.3 kmh 29.69 in1005.4 mb 0.02 in0.5 mm 0.00 in0.0 mm 0.28 in7.1 mm
05:30 AM 42.3°F5.7°C 41.0°F5.0°C 95% 5.0 mph NE8.0 kmh NE 10.0 mph16.1 kmh 29.69 in1005.4 mb 0.02 in0.5 mm 0.00 in0.0 mm 0.28 in7.1 mm
05:33 AM 42.4°F5.8°C 41.0°F5.0°C 95% 5.0 mph NE8.0 kmh NE 11.0 mph17.7 kmh 29.69 in1005.4 mb 0.02 in0.5 mm 0.00 in0.0 mm 0.28 in7.1 mm
05:36 AM 42.4°F5.8°C 41.0°F5.0°C 95% 5.0 mph NNE8.0 kmh NNE 11.0 mph17.7 kmh 29.69 in1005.4 mb 0.02 in0.5 mm 0.00 in0.0 mm 0.29 in7.4 mm
05:39 AM 42.4°F5.8°C 41.2°F5.1°C 95% 5.0 mph NE8.0 kmh NE 11.0 mph17.7 kmh 29.69 in1005.4 mb 0.02 in0.5 mm 0.00 in0.0 mm 0.29 in7.4 mm
05:42 AM 42.4°F5.8°C 41.2°F5.1°C 95% 5.0 mph NE8.0 kmh NE 11.0 mph17.7 kmh 29.69 in1005.4 mb 0.02 in0.5 mm 0.00 in0.0 mm 0.29 in7.4 mm
05:45 AM 42.4°F5.8°C 41.2°F5.1°C 95% 5.0 mph NNE8.0 kmh NNE 11.0 mph17.7 kmh 29.69 in1005.4 mb 0.02 in0.5 mm 0.00 in0.0 mm 0.29 in7.4 mm
05:48 AM 42.4°F5.8°C 41.2°F5.1°C 95% 5.0 mph NNE8.0 kmh NNE 11.0 mph17.7 kmh 29.69 in1005.4 mb 0.02 in0.5 mm 0.00 in0.0 mm 0.29 in7.4 mm
05:51 AM 42.6°F5.9°C 41.2°F5.1°C 95% 5.0 mph NNE8.0 kmh NNE 11.0 mph17.7 kmh 29.69 in1005.4 mb 0.03 in0.8 mm 0.20 in5.1 mm 0.30 in7.6 mm
05:54 AM 42.6°F5.9°C 41.2°F5.1°C 95% 6.0 mph NNE9.7 kmh NNE 12.0 mph19.3 kmh 29.69 in1005.4 mb 0.03 in0.8 mm 0.00 in0.0 mm 0.30 in7.6 mm
05:57 AM 42.6°F5.9°C 41.2°F5.1°C 95% 6.0 mph NNE9.7 kmh NNE 12.0 mph19.3 kmh 29.69 in1005.4 mb 0.02 in0.5 mm 0.00 in0.0 mm 0.30 in7.6 mm
06:00 AM 42.6°F5.9°C 41.2°F5.1°C 95% 6.0 mph NNE9.7 kmh NNE 12.0 mph19.3 kmh 29.69 in1005.4 mb 0.02 in0.5 mm 0.00 in0.0 mm 0.30 in7.6 mm
06:03 AM 42.6°F5.9°C 41.2°F5.1°C 95% 6.0 mph NNE9.7 kmh NNE 12.0 mph19.3 kmh 29.69 in1005.4 mb 0.02 in0.5 mm 0.00 in0.0 mm 0.30 in7.6 mm
06:06 AM 42.6°F5.9°C 41.2°F5.1°C 95% 5.0 mph NNE8.0 kmh NNE 12.0 mph19.3 kmh 29.69 in1005.4 mb 0.02 in0.5 mm 0.00 in0.0 mm 0.30 in7.6 mm
06:09 AM 42.6°F5.9°C 41.2°F5.1°C 95% 6.0 mph NNE9.7 kmh NNE 12.0 mph19.3 kmh 29.69 in1005.4 mb 0.02 in0.5 mm 0.00 in0.0 mm 0.30 in7.6 mm
06:12 AM 42.6°F5.9°C 41.2°F5.1°C 95% 6.0 mph NE9.7 kmh NE 12.0 mph19.3 kmh 29.69 in1005.4 mb 0.02 in0.5 mm 0.00 in0.0 mm 0.30 in7.6 mm
06:15 AM 42.6°F5.9°C 41.2°F5.1°C 95% 6.0 mph NE9.7 kmh NE 12.0 mph19.3 kmh 29.69 in1005.4 mb 0.02 in0.5 mm 0.00 in0.0 mm 0.30 in7.6 mm
06:18 AM 42.6°F5.9°C 41.2°F5.1°C 95% 5.0 mph NE8.0 kmh NE 11.0 mph17.7 kmh 29.69 in1005.4 mb 0.02 in0.5 mm 0.00 in0.0 mm 0.31 in7.9 mm
06:21 AM 42.6°F5.9°C 41.4°F5.2°C 95% 5.0 mph NE8.0 kmh NE 10.0 mph16.1 kmh 29.69 in1005.4 mb 0.02 in0.5 mm 0.00 in0.0 mm 0.31 in7.9 mm
06:24 AM 42.6°F5.9°C 41.4°F5.2°C 95% 5.0 mph NE8.0 kmh NE 10.0 mph16.1 kmh 29.69 in1005.4 mb 0.02 in0.5 mm 0.00 in0.0 mm 0.31 in7.9 mm
06:27 AM 42.6°F5.9°C 41.4°F5.2°C 95% 5.0 mph NNE8.0 kmh NNE 12.0 mph19.3 kmh 29.69 in1005.4 mb 0.02 in0.5 mm 0.00 in0.0 mm 0.31 in7.9 mm
06:30 AM 42.8°F6.0°C 41.5°F5.3°C 95% 6.0 mph NNE9.7 kmh NNE 12.0 mph19.3 kmh 29.70 in1005.8 mb 0.03 in0.8 mm 0.20 in5.1 mm 0.31 in7.9 mm
06:33 AM 42.8°F6.0°C 41.5°F5.3°C 95% 6.0 mph NNE9.7 kmh NNE 12.0 mph19.3 kmh 29.69 in1005.4 mb 0.03 in0.8 mm 0.00 in0.0 mm 0.31 in7.9 mm
06:36 AM 42.8°F6.0°C 41.5°F5.3°C 95% 6.0 mph NNE9.7 kmh NNE 12.0 mph19.3 kmh 29.69 in1005.4 mb 0.02 in0.5 mm 0.00 in0.0 mm 0.31 in7.9 mm
06:39 AM 42.8°F6.0°C 41.5°F5.3°C 95% 7.0 mph NNE11.3 kmh NNE 12.0 mph19.3 kmh 29.70 in1005.8 mb 0.02 in0.5 mm 0.00 in0.0 mm 0.31 in7.9 mm
06:42 AM 42.8°F6.0°C 41.5°F5.3°C 95% 7.0 mph NNE11.3 kmh NNE 12.0 mph19.3 kmh 29.70 in1005.8 mb 0.02 in0.5 mm 0.00 in0.0 mm 0.31 in7.9 mm
06:45 AM 42.8°F6.0°C 41.5°F5.3°C 95% 6.0 mph NNE9.7 kmh NNE 12.0 mph19.3 kmh 29.70 in1005.8 mb 0.02 in0.5 mm 0.00 in0.0 mm 0.31 in7.9 mm
06:48 AM 42.8°F6.0°C 41.5°F5.3°C 95% 6.0 mph NNE9.7 kmh NNE 13.0 mph20.9 kmh 29.70 in1005.8 mb 0.02 in0.5 mm 0.00 in0.0 mm 0.31 in7.9 mm
06:51 AM 42.8°F6.0°C 41.5°F5.3°C 95% 7.0 mph NNE11.3 kmh NNE 14.0 mph22.5 kmh 29.70 in1005.8 mb 0.02 in0.5 mm 0.00 in0.0 mm 0.31 in7.9 mm
06:54 AM 42.8°F6.0°C 41.5°F5.3°C 95% 6.0 mph NNE9.7 kmh NNE 14.0 mph22.5 kmh 29.70 in1005.8 mb 0.02 in0.5 mm 0.00 in0.0 mm 0.31 in7.9 mm
06:57 AM 42.8°F6.0°C 41.5°F5.3°C 95% 6.0 mph NNE9.7 kmh NNE 14.0 mph22.5 kmh 29.69 in1005.4 mb 0.02 in0.5 mm 0.00 in0.0 mm 0.31 in7.9 mm
07:00 AM 42.8°F6.0°C 41.5°F5.3°C 95% 6.0 mph NNE9.7 kmh NNE 11.0 mph17.7 kmh 29.70 in1005.8 mb 0.02 in0.5 mm 0.00 in0.0 mm 0.31 in7.9 mm
07:03 AM 42.8°F6.0°C 41.5°F5.3°C 95% 6.0 mph NNE9.7 kmh NNE 13.0 mph20.9 kmh 29.70 in1005.8 mb 0.02 in0.5 mm 0.00 in0.0 mm 0.32 in8.1 mm
07:06 AM 42.8°F6.0°C 41.5°F5.3°C 95% 7.0 mph NNE11.3 kmh NNE 13.0 mph20.9 kmh 29.70 in1005.8 mb 0.02 in0.5 mm 0.00 in0.0 mm 0.32 in8.1 mm
07:09 AM 42.8°F6.0°C 41.5°F5.3°C 95% 7.0 mph NNE11.3 kmh NNE 13.0 mph20.9 kmh 29.70 in1005.8 mb 0.02 in0.5 mm 0.00 in0.0 mm 0.32 in8.1 mm
07:12 AM 42.8°F6.0°C 41.5°F5.3°C 95% 8.0 mph NNE12.9 kmh NNE 12.0 mph19.3 kmh 29.70 in1005.8 mb 0.02 in0.5 mm 0.00 in0.0 mm 0.32 in8.1 mm
07:15 AM 42.6°F5.9°C 41.4°F5.2°C 95% 8.0 mph NNE12.9 kmh NNE 13.0 mph20.9 kmh 29.70 in1005.8 mb 0.02 in0.5 mm 0.00 in0.0 mm 0.32 in8.1 mm
07:18 AM 42.8°F6.0°C 41.5°F5.3°C 95% 8.0 mph NNE12.9 kmh NNE 13.0 mph20.9 kmh 29.70 in1005.8 mb 0.02 in0.5 mm 0.00 in0.0 mm 0.32 in8.1 mm
07:21 AM 42.8°F6.0°C 41.5°F5.3°C 95% 7.0 mph NNE11.3 kmh NNE 13.0 mph20.9 kmh 29.70 in1005.8 mb 0.02 in0.5 mm 0.00 in0.0 mm 0.32 in8.1 mm
07:24 AM 42.8°F6.0°C 41.5°F5.3°C 95% 7.0 mph NNE11.3 kmh NNE 15.0 mph24.1 kmh 29.70 in1005.8 mb 0.02 in0.5 mm 0.00 in0.0 mm 0.32 in8.1 mm
07:27 AM 42.8°F6.0°C 41.5°F5.3°C 95% 7.0 mph NNE11.3 kmh NNE 15.0 mph24.1 kmh 29.70 in1005.8 mb 0.02 in0.5 mm 0.00 in0.0 mm 0.32 in8.1 mm
07:30 AM 42.8°F6.0°C 41.5°F5.3°C 95% 7.0 mph NNE11.3 kmh NNE 15.0 mph24.1 kmh 29.70 in1005.8 mb 0.01 in0.3 mm 0.00 in0.0 mm 0.32 in8.1 mm
07:33 AM 42.6°F5.9°C 41.4°F5.2°C 95% 8.0 mph NNE12.9 kmh NNE 15.0 mph24.1 kmh 29.70 in1005.8 mb 0.01 in0.3 mm 0.00 in0.0 mm 0.32 in8.1 mm
07:36 AM 42.8°F6.0°C 41.5°F5.3°C 95% 8.0 mph N12.9 kmh N 13.0 mph20.9 kmh 29.70 in1005.8 mb 0.01 in0.3 mm 0.00 in0.0 mm 0.32 in8.1 mm
07:39 AM 42.8°F6.0°C 41.5°F5.3°C 95% 8.0 mph N12.9 kmh N 13.0 mph20.9 kmh 29.70 in1005.8 mb 0.02 in0.5 mm 0.20 in5.1 mm 0.33 in8.4 mm
07:42 AM 43.0°F6.1°C 41.5°F5.3°C 95% 7.0 mph N11.3 kmh N 13.0 mph20.9 kmh 29.70 in1005.8 mb 0.02 in0.5 mm 0.00 in0.0 mm 0.33 in8.4 mm
07:45 AM 43.0°F6.1°C 41.7°F5.4°C 95% 7.0 mph N11.3 kmh N 13.0 mph20.9 kmh 29.70 in1005.8 mb 0.02 in0.5 mm 0.00 in0.0 mm 0.33 in8.4 mm
07:48 AM 43.0°F6.1°C 41.7°F5.4°C 95% 8.0 mph N12.9 kmh N 13.0 mph20.9 kmh 29.70 in1005.8 mb 0.02 in0.5 mm 0.00 in0.0 mm 0.33 in8.4 mm
07:51 AM 43.2°F6.2°C 41.7°F5.4°C 95% 8.0 mph N12.9 kmh N 14.0 mph22.5 kmh 29.70 in1005.8 mb 0.02 in0.5 mm 0.00 in0.0 mm 0.33 in8.4 mm
07:54 AM 43.2°F6.2°C 41.9°F5.5°C 95% 8.0 mph N12.9 kmh N 14.0 mph22.5 kmh 29.70 in1005.8 mb 0.02 in0.5 mm 0.00 in0.0 mm 0.33 in8.4 mm
07:57 AM 43.3°F6.3°C 41.9°F5.5°C 95% 9.0 mph N14.5 kmh N 15.0 mph24.1 kmh 29.70 in1005.8 mb 0.02 in0.5 mm 0.00 in0.0 mm 0.33 in8.4 mm
08:00 AM 43.3°F6.3°C 42.1°F5.6°C 95% 9.0 mph N14.5 kmh N 15.0 mph24.1 kmh 29.70 in1005.8 mb 0.02 in0.5 mm 0.00 in0.0 mm 0.33 in8.4 mm
08:03 AM 43.3°F6.3°C 42.1°F5.6°C 95% 9.0 mph N14.5 kmh N 15.0 mph24.1 kmh 29.70 in1005.8 mb 0.01 in0.3 mm 0.00 in0.0 mm 0.33 in8.4 mm
08:06 AM 43.5°F6.4°C 42.1°F5.6°C 95% 8.0 mph N12.9 kmh N 14.0 mph22.5 kmh 29.70 in1005.8 mb 0.01 in0.3 mm 0.00 in0.0 mm 0.33 in8.4 mm
08:09 AM 43.5°F6.4°C 42.3°F5.7°C 95% 8.0 mph N12.9 kmh N 13.0 mph20.9 kmh 29.70 in1005.8 mb 0.01 in0.3 mm 0.00 in0.0 mm 0.33 in8.4 mm
08:12 AM 43.5°F6.4°C 42.3°F5.7°C 95% 7.0 mph N11.3 kmh N 13.0 mph20.9 kmh 29.70 in1005.8 mb 0.02 in0.5 mm 0.20 in5.1 mm 0.34 in8.6 mm
08:15 AM 43.7°F6.5°C 42.4°F5.8°C 95% 7.0 mph N11.3 kmh N 12.0 mph19.3 kmh 29.70 in1005.8 mb 0.02 in0.5 mm 0.00 in0.0 mm 0.34 in8.6 mm
08:18 AM 43.7°F6.5°C 42.4°F5.8°C 95% 7.0 mph NNE11.3 kmh NNE 12.0 mph19.3 kmh 29.70 in1005.8 mb 0.02 in0.5 mm 0.00 in0.0 mm 0.34 in8.6 mm
08:21 AM 43.7°F6.5°C 42.4°F5.8°C 95% 8.0 mph NNE12.9 kmh NNE 13.0 mph20.9 kmh 29.70 in1005.8 mb 0.02 in0.5 mm 0.00 in0.0 mm 0.34 in8.6 mm
08:24 AM 43.9°F6.6°C 42.4°F5.8°C 95% 8.0 mph NNE12.9 kmh NNE 14.0 mph22.5 kmh 29.70 in1005.8 mb 0.02 in0.5 mm 0.00 in0.0 mm 0.34 in8.6 mm
08:27 AM 43.9°F6.6°C 42.4°F5.8°C 95% 7.0 mph NNE11.3 kmh NNE 15.0 mph24.1 kmh 29.70 in1005.8 mb 0.02 in0.5 mm 0.00 in0.0 mm 0.34 in8.6 mm
08:30 AM 43.9°F6.6°C 42.4°F5.8°C 95% 7.0 mph NNE11.3 kmh NNE 15.0 mph24.1 kmh 29.70 in1005.8 mb 0.02 in0.5 mm 0.00 in0.0 mm 0.34 in8.6 mm
08:33 AM 43.9°F6.6°C 42.4°F5.8°C 95% 8.0 mph NNE12.9 kmh NNE 17.0 mph27.4 kmh 29.70 in1005.8 mb 0.02 in0.5 mm 0.00 in0.0 mm 0.34 in8.6 mm
08:36 AM 43.7°F6.5°C 42.4°F5.8°C 95% 9.0 mph NNE14.5 kmh NNE 17.0 mph27.4 kmh 29.70 in1005.8 mb 0.02 in0.5 mm 0.00 in0.0 mm 0.34 in8.6 mm
08:39 AM 43.7°F6.5°C 42.4°F5.8°C 95% 10.0 mph NNE16.1 kmh NNE 17.0 mph27.4 kmh 29.70 in1005.8 mb 0.01 in0.3 mm 0.00 in0.0 mm 0.34 in8.6 mm
08:42 AM 43.7°F6.5°C 42.1°F5.6°C 94% 9.0 mph NNE14.5 kmh NNE 17.0 mph27.4 kmh 29.70 in1005.8 mb 0.01 in0.3 mm 0.00 in0.0 mm 0.34 in8.6 mm
08:45 AM 43.7°F6.5°C 42.1°F5.6°C 94% 9.0 mph NNE14.5 kmh NNE 16.0 mph25.7 kmh 29.70 in1005.8 mb 0.01 in0.3 mm 0.00 in0.0 mm 0.34 in8.6 mm
08:48 AM 43.9°F6.6°C 42.3°F5.7°C 94% 9.0 mph NNE14.5 kmh NNE 16.0 mph25.7 kmh 29.70 in1005.8 mb 0.01 in0.3 mm 0.00 in0.0 mm 0.34 in8.6 mm
08:51 AM 43.9°F6.6°C 42.3°F5.7°C 94% 9.0 mph NNE14.5 kmh NNE 16.0 mph25.7 kmh 29.70 in1005.8 mb 0.01 in0.3 mm 0.00 in0.0 mm 0.34 in8.6 mm
08:54 AM 43.9°F6.6°C 42.3°F5.7°C 94% 9.0 mph NE14.5 kmh NE 16.0 mph25.7 kmh 29.71 in1006.1 mb 0.01 in0.3 mm 0.00 in0.0 mm 0.34 in8.6 mm
08:57 AM 44.1°F6.7°C 42.4°F5.8°C 94% 9.0 mph NNE14.5 kmh NNE 16.0 mph25.7 kmh 29.71 in1006.1 mb 0.01 in0.3 mm 0.00 in0.0 mm 0.34 in8.6 mm
09:00 AM 44.1°F6.7°C 42.4°F5.8°C 94% 9.0 mph NNE14.5 kmh NNE 16.0 mph25.7 kmh 29.71 in1006.1 mb 0.01 in0.3 mm 0.00 in0.0 mm 0.34 in8.6 mm
09:03 AM 44.1°F6.7°C 42.4°F5.8°C 94% 8.0 mph NNE12.9 kmh NNE 16.0 mph25.7 kmh 29.71 in1006.1 mb 0.01 in0.3 mm 0.00 in0.0 mm 0.34 in8.6 mm
09:06 AM 44.1°F6.7°C 42.4°F5.8°C 94% 8.0 mph NE12.9 kmh NE 16.0 mph25.7 kmh 29.71 in1006.1 mb 0.01 in0.3 mm 0.00 in0.0 mm 0.34 in8.6 mm
09:09 AM 44.2°F6.8°C 42.6°F5.9°C 94% 7.0 mph NE11.3 kmh NE 17.0 mph27.4 kmh 29.71 in1006.1 mb 0.01 in0.3 mm 0.00 in0.0 mm 0.34 in8.6 mm
09:12 AM 44.2°F6.8°C 42.6°F5.9°C 94% 7.0 mph NE11.3 kmh NE 17.0 mph27.4 kmh 29.71 in1006.1 mb 0.00 in0.0 mm 0.00 in0.0 mm 0.34 in8.6 mm
09:15 AM 44.1°F6.7°C 42.4°F5.8°C 94% 7.0 mph NNE11.3 kmh NNE 17.0 mph27.4 kmh 29.71 in1006.1 mb 0.00 in0.0 mm 0.00 in0.0 mm 0.34 in8.6 mm
09:18 AM 44.2°F6.8°C 42.6°F5.9°C 94% 8.0 mph NE12.9 kmh NE 17.0 mph27.4 kmh 29.71 in1006.1 mb 0.00 in0.0 mm 0.00 in0.0 mm 0.34 in8.6 mm
09:21 AM 44.2°F6.8°C 42.6°F5.9°C 94% 8.0 mph NNE12.9 kmh NNE 14.0 mph22.5 kmh 29.71 in1006.1 mb 0.00 in0.0 mm 0.00 in0.0 mm 0.34 in8.6 mm
09:24 AM 44.2°F6.8°C 42.6°F5.9°C 94% 8.0 mph NE12.9 kmh NE 15.0 mph24.1 kmh 29.71 in1006.1 mb 0.00 in0.0 mm 0.00 in0.0 mm 0.34 in8.6 mm
09:27 AM 44.2°F6.8°C 42.3°F5.7°C 93% 9.0 mph NE14.5 kmh NE 17.0 mph27.4 kmh 29.71 in1006.1 mb 0.00 in0.0 mm 0.00 in0.0 mm 0.34 in8.6 mm
09:30 AM 44.2°F6.8°C 42.3°F5.7°C 93% 8.0 mph NE12.9 kmh NE 17.0 mph27.4 kmh 29.71 in1006.1 mb 0.00 in0.0 mm 0.00 in0.0 mm 0.34 in8.6 mm
09:33 AM 44.4°F6.9°C 42.8°F6.0°C 94% 9.0 mph NE14.5 kmh NE 17.0 mph27.4 kmh 29.71 in1006.1 mb 0.00 in0.0 mm 0.00 in0.0 mm 0.34 in8.6 mm
09:36 AM 44.2°F6.8°C 42.4°F5.8°C 93% 8.0 mph NE12.9 kmh NE 17.0 mph27.4 kmh 29.71 in1006.1 mb 0.00 in0.0 mm 0.00 in0.0 mm 0.34 in8.6 mm
09:39 AM 44.4°F6.9°C 42.4°F5.8°C 93% 8.0 mph NE12.9 kmh NE 17.0 mph27.4 kmh 29.71 in1006.1 mb 0.00 in0.0 mm 0.00 in0.0 mm 0.34 in8.6 mm
09:42 AM 44.4°F6.9°C 42.4°F5.8°C 93% 8.0 mph NE12.9 kmh NE 18.0 mph29.0 kmh 29.71 in1006.1 mb 0.00 in0.0 mm 0.00 in0.0 mm 0.34 in8.6 mm
09:45 AM 44.4°F6.9°C 42.4°F5.8°C 93% 8.0 mph NNE12.9 kmh NNE 18.0 mph29.0 kmh 29.71 in1006.1 mb 0.00 in0.0 mm 0.00 in0.0 mm 0.34 in8.6 mm
09:48 AM 44.4°F6.9°C 42.4°F5.8°C 93% 8.0 mph NNE12.9 kmh NNE 18.0 mph29.0 kmh 29.71 in1006.1 mb 0.00 in0.0 mm 0.00 in0.0 mm 0.34 in8.6 mm
09:51 AM 44.4°F6.9°C 42.4°F5.8°C 93% 9.0 mph NNE14.5 kmh NNE 18.0 mph29.0 kmh 29.71 in1006.1 mb 0.00 in0.0 mm 0.00 in0.0 mm 0.34 in8.6 mm
09:54 AM 44.4°F6.9°C 42.4°F5.8°C 93% 9.0 mph NNE14.5 kmh NNE 18.0 mph29.0 kmh 29.71 in1006.1 mb 0.00 in0.0 mm 0.00 in0.0 mm 0.34 in8.6 mm
09:57 AM 44.2°F6.8°C 42.4°F5.8°C 93% 9.0 mph NE14.5 kmh NE 18.0 mph29.0 kmh 29.72 in1006.4 mb 0.00 in0.0 mm 0.00 in0.0 mm 0.34 in8.6 mm
10:00 AM 44.2°F6.8°C 42.4°F5.8°C 93% 10.0 mph NE16.1 kmh NE 18.0 mph29.0 kmh 29.72 in1006.4 mb 0.00 in0.0 mm 0.00 in0.0 mm 0.34 in8.6 mm
10:03 AM 44.2°F6.8°C 42.4°F5.8°C 93% 9.0 mph NNE14.5 kmh NNE 18.0 mph29.0 kmh 29.72 in1006.4 mb 0.00 in0.0 mm 0.00 in0.0 mm 0.34 in8.6 mm
10:06 AM 44.4°F6.9°C 42.4°F5.8°C 93% 8.0 mph NE12.9 kmh NE 16.0 mph25.7 kmh 29.72 in1006.4 mb 0.00 in0.0 mm 0.00 in0.0 mm 0.34 in8.6 mm
10:09 AM 44.4°F6.9°C 42.4°F5.8°C 93% 8.0 mph NE12.9 kmh NE 16.0 mph25.7 kmh 29.72 in1006.4 mb 0.01 in0.3 mm 0.20 in5.1 mm 0.35 in8.9 mm
10:12 AM 44.4°F6.9°C 42.4°F5.8°C 93% 6.0 mph NE9.7 kmh NE 13.0 mph20.9 kmh 29.72 in1006.4 mb 0.01 in0.3 mm 0.00 in0.0 mm 0.35 in8.9 mm
10:15 AM 44.4°F6.9°C 42.6°F5.9°C 93% 6.0 mph NE9.7 kmh NE 13.0 mph20.9 kmh 29.72 in1006.4 mb 0.01 in0.3 mm 0.00 in0.0 mm 0.35 in8.9 mm
10:18 AM 44.6°F7.0°C 42.6°F5.9°C 93% 6.0 mph NE9.7 kmh NE 12.0 mph19.3 kmh 29.72 in1006.4 mb 0.01 in0.3 mm 0.00 in0.0 mm 0.35 in8.9 mm
10:21 AM 44.8°F7.1°C 42.8°F6.0°C 93% 6.0 mph NE9.7 kmh NE 12.0 mph19.3 kmh 29.72 in1006.4 mb 0.01 in0.3 mm 0.00 in0.0 mm 0.35 in8.9 mm
10:24 AM 44.6°F7.0°C 42.6°F5.9°C 93% 7.0 mph NE11.3 kmh NE 18.0 mph29.0 kmh 29.72 in1006.4 mb 0.01 in0.3 mm 0.00 in0.0 mm 0.35 in8.9 mm
10:27 AM 44.4°F6.9°C 42.3°F5.7°C 92% 8.0 mph NE12.9 kmh NE 18.0 mph29.0 kmh 29.73 in1006.8 mb 0.01 in0.3 mm 0.00 in0.0 mm 0.35 in8.9 mm
10:30 AM 44.4°F6.9°C 42.6°F5.9°C 93% 10.0 mph NE16.1 kmh NE 18.0 mph29.0 kmh 29.73 in1006.8 mb 0.01 in0.3 mm 0.00 in0.0 mm 0.35 in8.9 mm
10:33 AM 44.8°F7.1°C 42.8°F6.0°C 93% 10.0 mph NE16.1 kmh NE 18.0 mph29.0 kmh 29.73 in1006.8 mb 0.01 in0.3 mm 0.00 in0.0 mm 0.35 in8.9 mm
10:36 AM 45.0°F7.2°C 43.0°F6.1°C 93% 9.0 mph NE14.5 kmh NE 15.0 mph24.1 kmh 29.73 in1006.8 mb 0.01 in0.3 mm 0.00 in0.0 mm 0.35 in8.9 mm
10:39 AM 45.1°F7.3°C 43.2°F6.2°C 93% 9.0 mph NE14.5 kmh NE 15.0 mph24.1 kmh 29.73 in1006.8 mb 0.01 in0.3 mm 0.00 in0.0 mm 0.35 in8.9 mm
10:42 AM 45.1°F7.3°C 43.2°F6.2°C 93% 8.0 mph NE12.9 kmh NE 15.0 mph24.1 kmh 29.73 in1006.8 mb 0.01 in0.3 mm 0.00 in0.0 mm 0.35 in8.9 mm
10:45 AM 45.1°F7.3°C 43.3°F6.3°C 93% 7.0 mph NNE11.3 kmh NNE 15.0 mph24.1 kmh 29.73 in1006.8 mb 0.01 in0.3 mm 0.00 in0.0 mm 0.35 in8.9 mm
10:48 AM 45.3°F7.4°C 43.3°F6.3°C 93% 7.0 mph NNE11.3 kmh NNE 15.0 mph24.1 kmh 29.73 in1006.8 mb 0.01 in0.3 mm 0.00 in0.0 mm 0.35 in8.9 mm
10:51 AM 45.5°F7.5°C 43.5°F6.4°C 93% 8.0 mph NNE12.9 kmh NNE 15.0 mph24.1 kmh 29.73 in1006.8 mb 0.01 in0.3 mm 0.00 in0.0 mm 0.35 in8.9 mm
10:54 AM 45.7°F7.6°C 43.9°F6.6°C 93% 8.0 mph NNE12.9 kmh NNE 15.0 mph24.1 kmh 29.73 in1006.8 mb 0.01 in0.3 mm 0.00 in0.0 mm 0.35 in8.9 mm
10:57 AM 46.0°F7.8°C 44.1°F6.7°C 93% 7.0 mph NNE11.3 kmh NNE 15.0 mph24.1 kmh 29.73 in1006.8 mb 0.01 in0.3 mm 0.00 in0.0 mm 0.35 in8.9 mm
11:00 AM 46.0°F7.8°C 43.9°F6.6°C 92% 8.0 mph NNE12.9 kmh NNE 15.0 mph24.1 kmh 29.73 in1006.8 mb 0.01 in0.3 mm 0.00 in0.0 mm 0.35 in8.9 mm
11:03 AM 46.2°F7.9°C 44.1°F6.7°C 92% 8.0 mph NNE12.9 kmh NNE 15.0 mph24.1 kmh 29.73 in1006.8 mb 0.01 in0.3 mm 0.00 in0.0 mm 0.35 in8.9 mm
11:06 AM 46.2°F7.9°C 44.1°F6.7°C 92% 9.0 mph NNE14.5 kmh NNE 16.0 mph25.7 kmh 29.73 in1006.8 mb 0.01 in0.3 mm 0.00 in0.0 mm 0.35 in8.9 mm
11:09 AM 46.4°F8.0°C 44.2°F6.8°C 92% 10.0 mph NNE16.1 kmh NNE 16.0 mph25.7 kmh 29.73 in1006.8 mb 0.00 in0.0 mm 0.00 in0.0 mm 0.35 in8.9 mm
11:12 AM 46.6°F8.1°C 44.4°F6.9°C 92% 9.0 mph NNE14.5 kmh NNE 16.0 mph25.7 kmh 29.73 in1006.8 mb 0.00 in0.0 mm 0.00 in0.0 mm 0.35 in8.9 mm
11:15 AM 46.8°F8.2°C 44.2°F6.8°C 91% 9.0 mph NNE14.5 kmh NNE 16.0 mph25.7 kmh 29.73 in1006.8 mb 0.00 in0.0 mm 0.00 in0.0 mm 0.35 in8.9 mm
11:18 AM 46.8°F8.2°C 44.2°F6.8°C 91% 9.0 mph NNE14.5 kmh NNE 17.0 mph27.4 kmh 29.73 in1006.8 mb 0.00 in0.0 mm 0.00 in0.0 mm 0.35 in8.9 mm
11:21 AM 46.9°F8.3°C 44.1°F6.7°C 90% 8.0 mph NNE12.9 kmh NNE 17.0 mph27.4 kmh 29.73 in1006.8 mb 0.00 in0.0 mm 0.00 in0.0 mm 0.35 in8.9 mm
11:24 AM 47.1°F8.4°C 44.6°F7.0°C 91% 8.0 mph NNE12.9 kmh NNE 17.0 mph27.4 kmh 29.73 in1006.8 mb 0.00 in0.0 mm 0.00 in0.0 mm 0.35 in8.9 mm
11:27 AM 47.1°F8.4°C 44.2°F6.8°C 90% 7.0 mph NNE11.3 kmh NNE 15.0 mph24.1 kmh 29.73 in1006.8 mb 0.00 in0.0 mm 0.00 in0.0 mm 0.35 in8.9 mm
11:30 AM 47.1°F8.4°C 44.2°F6.8°C 90% 7.0 mph NNE11.3 kmh NNE 13.0 mph20.9 kmh 29.73 in1006.8 mb 0.00 in0.0 mm 0.00 in0.0 mm 0.35 in8.9 mm
11:33 AM 46.9°F8.3°C 44.2°F6.8°C 90% 7.0 mph NE11.3 kmh NE 13.0 mph20.9 kmh 29.73 in1006.8 mb 0.00 in0.0 mm 0.00 in0.0 mm 0.35 in8.9 mm
11:36 AM 47.1°F8.4°C 44.2°F6.8°C 90% 7.0 mph NE11.3 kmh NE 13.0 mph20.9 kmh 29.73 in1006.8 mb 0.00 in0.0 mm 0.00 in0.0 mm 0.35 in8.9 mm
11:39 AM 47.1°F8.4°C 44.4°F6.9°C 90% 7.0 mph NNE11.3 kmh NNE 14.0 mph22.5 kmh 29.73 in1006.8 mb 0.00 in0.0 mm 0.00 in0.0 mm 0.35 in8.9 mm
11:42 AM 47.1°F8.4°C 44.4°F6.9°C 90% 8.0 mph NNE12.9 kmh NNE 14.0 mph22.5 kmh 29.73 in1006.8 mb 0.00 in0.0 mm 0.00 in0.0 mm 0.35 in8.9 mm
11:45 AM 47.1°F8.4°C 44.1°F6.7°C 89% 8.0 mph N12.9 kmh N 15.0 mph24.1 kmh 29.73 in1006.8 mb 0.00 in0.0 mm 0.00 in0.0 mm 0.35 in8.9 mm
11:48 AM 47.7°F8.7°C 44.8°F7.1°C 90% 9.0 mph N14.5 kmh N 15.0 mph24.1 kmh 29.73 in1006.8 mb 0.00 in0.0 mm 0.00 in0.0 mm 0.35 in8.9 mm
11:51 AM 47.8°F8.8°C 45.3°F7.4°C 91% 8.0 mph N12.9 kmh N 15.0 mph24.1 kmh 29.73 in1006.8 mb 0.00 in0.0 mm 0.00 in0.0 mm 0.35 in8.9 mm
11:54 AM 47.8°F8.8°C 44.8°F7.1°C 89% 8.0 mph N12.9 kmh N 15.0 mph24.1 kmh 29.73 in1006.8 mb 0.00 in0.0 mm 0.00 in0.0 mm 0.35 in8.9 mm
11:57 AM 47.8°F8.8°C 44.8°F7.1°C 89% 8.0 mph N12.9 kmh N 14.0 mph22.5 kmh 29.73 in1006.8 mb 0.00 in0.0 mm 0.00 in0.0 mm 0.35 in8.9 mm
12:00 PM 47.8°F8.8°C 44.4°F6.9°C 88% 8.0 mph N12.9 kmh N 14.0 mph22.5 kmh 29.73 in1006.8 mb 0.00 in0.0 mm 0.00 in0.0 mm 0.35 in8.9 mm
12:03 PM 47.8°F8.8°C 44.4°F6.9°C 88% 8.0 mph NNE12.9 kmh NNE 15.0 mph24.1 kmh 29.73 in1006.8 mb 0.00 in0.0 mm 0.00 in0.0 mm 0.35 in8.9 mm
12:06 PM 48.0°F8.9°C 44.6°F7.0°C 88% 8.0 mph NNE12.9 kmh NNE 15.0 mph24.1 kmh 29.73 in1006.8 mb 0.00 in0.0 mm 0.00 in0.0 mm 0.35 in8.9 mm
12:09 PM 48.0°F8.9°C 44.4°F6.9°C 87% 8.0 mph N12.9 kmh N 15.0 mph24.1 kmh 29.73 in1006.8 mb 0.00 in0.0 mm 0.00 in0.0 mm 0.35 in8.9 mm
12:12 PM 48.0°F8.9°C 44.4°F6.9°C 87% 9.0 mph NNE14.5 kmh NNE 15.0 mph24.1 kmh 29.74 in1007.1 mb 0.00 in0.0 mm 0.00 in0.0 mm 0.35 in8.9 mm
12:15 PM 48.0°F8.9°C 44.1°F6.7°C 86% 8.0 mph NNE12.9 kmh NNE 15.0 mph24.1 kmh 29.74 in1007.1 mb 0.00 in0.0 mm 0.00 in0.0 mm 0.35 in8.9 mm
12:18 PM 48.2°F9.0°C 44.6°F7.0°C 87% 8.0 mph NNE12.9 kmh NNE 15.0 mph24.1 kmh 29.74 in1007.1 mb 0.00 in0.0 mm 0.00 in0.0 mm 0.35 in8.9 mm
12:21 PM 48.6°F9.2°C 44.8°F7.1°C 87% 8.0 mph NNE12.9 kmh NNE 15.0 mph24.1 kmh 29.74 in1007.1 mb 0.00 in0.0 mm 0.00 in0.0 mm 0.35 in8.9 mm
12:24 PM 48.6°F9.2°C 44.6°F7.0°C 86% 8.0 mph NNE12.9 kmh NNE 15.0 mph24.1 kmh 29.74 in1007.1 mb 0.00 in0.0 mm 0.00 in0.0 mm 0.35 in8.9 mm
12:27 PM 48.6°F9.2°C 44.2°F6.8°C 85% 8.0 mph NNE12.9 kmh NNE 15.0 mph24.1 kmh 29.74 in1007.1 mb 0.00 in0.0 mm 0.00 in0.0 mm 0.35 in8.9 mm
12:30 PM 48.7°F9.3°C 44.4°F6.9°C 85% 8.0 mph NNE12.9 kmh NNE 14.0 mph22.5 kmh 29.73 in1006.8 mb 0.00 in0.0 mm 0.00 in0.0 mm 0.35 in8.9 mm
12:33 PM 49.1°F9.5°C 44.8°F7.1°C 85% 8.0 mph NNE12.9 kmh NNE 15.0 mph24.1 kmh 29.74 in1007.1 mb 0.00 in0.0 mm 0.00 in0.0 mm 0.35 in8.9 mm
12:36 PM 49.3°F9.6°C 44.6°F7.0°C 84% 8.0 mph NNE12.9 kmh NNE 15.0 mph24.1 kmh 29.73 in1006.8 mb 0.00 in0.0 mm 0.00 in0.0 mm 0.35 in8.9 mm
12:39 PM 49.3°F9.6°C 44.6°F7.0°C 84% 7.0 mph NNE11.3 kmh NNE 15.0 mph24.1 kmh 29.73 in1006.8 mb 0.00 in0.0 mm 0.00 in0.0 mm 0.35 in8.9 mm
12:42 PM 49.5°F9.7°C 44.6°F7.0°C 83% 7.0 mph NNE11.3 kmh NNE 15.0 mph24.1 kmh 29.73 in1006.8 mb 0.00 in0.0 mm 0.00 in0.0 mm 0.35 in8.9 mm
12:45 PM 49.6°F9.8°C 44.6°F7.0°C 83% 6.0 mph NNE9.7 kmh NNE 13.0 mph20.9 kmh 29.74 in1007.1 mb 0.00 in0.0 mm 0.00 in0.0 mm 0.35 in8.9 mm
12:48 PM 49.6°F9.8°C 44.6°F7.0°C 83% 6.0 mph NNE9.7 kmh NNE 16.0 mph25.7 kmh 29.74 in1007.1 mb 0.00 in0.0 mm 0.00 in0.0 mm 0.35 in8.9 mm
12:51 PM 49.5°F9.7°C 44.4°F6.9°C 83% 8.0 mph N12.9 kmh N 16.0 mph25.7 kmh 29.73 in1006.8 mb 0.00 in0.0 mm 0.00 in0.0 mm 0.35 in8.9 mm
12:54 PM 49.1°F9.5°C 44.2°F6.8°C 83% 8.0 mph N12.9 kmh N 16.0 mph25.7 kmh 29.74 in1007.1 mb 0.00 in0.0 mm 0.00 in0.0 mm 0.35 in8.9 mm
12:57 PM 49.1°F9.5°C 44.4°F6.9°C 84% 9.0 mph N14.5 kmh N 16.0 mph25.7 kmh 29.74 in1007.1 mb 0.00 in0.0 mm 0.00 in0.0 mm 0.35 in8.9 mm
01:00 PM 49.3°F9.6°C 44.6°F7.0°C 84% 8.0 mph NNE12.9 kmh NNE 13.0 mph20.9 kmh 29.73 in1006.8 mb 0.00 in0.0 mm 0.00 in0.0 mm 0.35 in8.9 mm
01:03 PM 49.5°F9.7°C 44.8°F7.1°C 84% 8.0 mph NNE12.9 kmh NNE 15.0 mph24.1 kmh 29.74 in1007.1 mb 0.00 in0.0 mm 0.00 in0.0 mm 0.35 in8.9 mm
01:06 PM 49.6°F9.8°C 44.2°F6.8°C 82% 8.0 mph NNE12.9 kmh NNE 15.0 mph24.1 kmh 29.74 in1007.1 mb 0.00 in0.0 mm 0.00 in0.0 mm 0.35 in8.9 mm
01:09 PM 49.6°F9.8°C 44.2°F6.8°C 82% 8.0 mph NNE12.9 kmh NNE 15.0 mph24.1 kmh 29.73 in1006.8 mb 0.00 in0.0 mm 0.00 in0.0 mm 0.35 in8.9 mm
01:12 PM 49.6°F9.8°C 44.8°F7.1°C 83% 8.0 mph NNE12.9 kmh NNE 16.0 mph25.7 kmh 29.74 in1007.1 mb 0.00 in0.0 mm 0.00 in0.0 mm 0.35 in8.9 mm
01:15 PM 49.6°F9.8°C 44.4°F6.9°C 82% 9.0 mph NNE14.5 kmh NNE 16.0 mph25.7 kmh 29.74 in1007.1 mb 0.00 in0.0 mm 0.00 in0.0 mm 0.35 in8.9 mm
01:18 PM 49.8°F9.9°C 44.6°F7.0°C 82% 9.0 mph NNE14.5 kmh NNE 16.0 mph25.7 kmh 29.74 in1007.1 mb 0.00 in0.0 mm 0.00 in0.0 mm 0.35 in8.9 mm
01:21 PM 50.0°F10.0°C 44.8°F7.1°C 82% 9.0 mph N14.5 kmh N 14.0 mph22.5 kmh 29.74 in1007.1 mb 0.00 in0.0 mm 0.00 in0.0 mm 0.35 in8.9 mm
01:24 PM 50.2°F10.1°C 45.0°F7.2°C 82% 9.0 mph N14.5 kmh N 16.0 mph25.7 kmh 29.74 in1007.1 mb 0.00 in0.0 mm 0.00 in0.0 mm 0.35 in8.9 mm
01:27 PM 50.4°F10.2°C 44.8°F7.1°C 81% 10.0 mph N16.1 kmh N 16.0 mph25.7 kmh 29.74 in1007.1 mb 0.00 in0.0 mm 0.00 in0.0 mm 0.35 in8.9 mm
01:30 PM 50.2°F10.1°C 44.2°F6.8°C 80% 10.0 mph N16.1 kmh N 16.0 mph25.7 kmh 29.74 in1007.1 mb 0.00 in0.0 mm 0.00 in0.0 mm 0.35 in8.9 mm
01:33 PM 50.2°F10.1°C 43.9°F6.6°C 79% 10.0 mph N16.1 kmh N 16.0 mph25.7 kmh 29.74 in1007.1 mb 0.00 in0.0 mm 0.00 in0.0 mm 0.35 in8.9 mm
01:36 PM 50.2°F10.1°C 44.2°F6.8°C 80% 9.0 mph N14.5 kmh N 16.0 mph25.7 kmh 29.74 in1007.1 mb 0.00 in0.0 mm 0.00 in0.0 mm 0.35 in8.9 mm
01:39 PM 50.4°F10.2°C 44.8°F7.1°C 81% 8.0 mph N12.9 kmh N 14.0 mph22.5 kmh 29.74 in1007.1 mb 0.00 in0.0 mm 0.00 in0.0 mm 0.35 in8.9 mm
01:42 PM 50.5°F10.3°C 45.0°F7.2°C 81% 8.0 mph N12.9 kmh N 15.0 mph24.1 kmh 29.74 in1007.1 mb 0.00 in0.0 mm 0.00 in0.0 mm 0.35 in8.9 mm
01:45 PM 50.7°F10.4°C 44.8°F7.1°C 80% 9.0 mph N14.5 kmh N 15.0 mph24.1 kmh 29.74 in1007.1 mb 0.00 in0.0 mm 0.00 in0.0 mm 0.35 in8.9 mm
01:48 PM 50.9°F10.5°C 45.0°F7.2°C 80% 9.0 mph N14.5 kmh N 15.0 mph24.1 kmh 29.74 in1007.1 mb 0.00 in0.0 mm 0.00 in0.0 mm 0.35 in8.9 mm
01:51 PM 51.1°F10.6°C 45.5°F7.5°C 81% 9.0 mph N14.5 kmh N 14.0 mph22.5 kmh 29.74 in1007.1 mb 0.00 in0.0 mm 0.00 in0.0 mm 0.35 in8.9 mm
01:54 PM 51.3°F10.7°C 45.3°F7.4°C 80% 9.0 mph N14.5 kmh N 14.0 mph22.5 kmh 29.74 in1007.1 mb 0.00 in0.0 mm 0.00 in0.0 mm 0.35 in8.9 mm
01:57 PM 51.4°F10.8°C 45.1°F7.3°C 79% 8.0 mph N12.9 kmh N 14.0 mph22.5 kmh 29.74 in1007.1 mb 0.00 in0.0 mm 0.00 in0.0 mm 0.35 in8.9 mm
02:00 PM 51.4°F10.8°C 45.1°F7.3°C 79% 8.0 mph N12.9 kmh N 17.0 mph27.4 kmh 29.74 in1007.1 mb 0.00 in0.0 mm 0.00 in0.0 mm 0.35 in8.9 mm
02:03 PM 51.8°F11.0°C 45.9°F7.7°C 80% 8.0 mph N12.9 kmh N 17.0 mph27.4 kmh 29.74 in1007.1 mb 0.00 in0.0 mm 0.00 in0.0 mm 0.35 in8.9 mm
02:06 PM 52.2°F11.2°C 45.9°F7.7°C 79% 9.0 mph N14.5 kmh N 17.0 mph27.4 kmh 29.73 in1006.8 mb 0.00 in0.0 mm 0.00 in0.0 mm 0.35 in8.9 mm
02:09 PM 52.5°F11.4°C 45.9°F7.7°C 78% 9.0 mph N14.5 kmh N 17.0 mph27.4 kmh 29.74 in1007.1 mb 0.00 in0.0 mm 0.00 in0.0 mm 0.35 in8.9 mm
02:12 PM 52.7°F11.5°C 45.7°F7.6°C 77% 9.0 mph N14.5 kmh N 15.0 mph24.1 kmh 29.74 in1007.1 mb 0.00 in0.0 mm 0.00 in0.0 mm 0.35 in8.9 mm
02:15 PM 52.7°F11.5°C 45.3°F7.4°C 76% 8.0 mph N12.9 kmh N 15.0 mph24.1 kmh 29.74 in1007.1 mb 0.00 in0.0 mm 0.00 in0.0 mm 0.35 in8.9 mm
02:18 PM 52.5°F11.4°C 45.1°F7.3°C 76% 9.0 mph N14.5 kmh N 15.0 mph24.1 kmh 29.74 in1007.1 mb 0.00 in0.0 mm 0.00 in0.0 mm 0.35 in8.9 mm
02:21 PM 52.3°F11.3°C 44.6°F7.0°C 75% 8.0 mph N12.9 kmh N 14.0 mph22.5 kmh 29.74 in1007.1 mb 0.00 in0.0 mm 0.00 in0.0 mm 0.35 in8.9 mm
02:24 PM 52.3°F11.3°C 45.0°F7.2°C 76% 9.0 mph N14.5 kmh N 18.0 mph29.0 kmh 29.74 in1007.1 mb 0.00 in0.0 mm 0.00 in0.0 mm 0.35 in8.9 mm
02:27 PM 52.2°F11.2°C 44.8°F7.1°C 76% 10.0 mph N16.1 kmh N 18.0 mph29.0 kmh 29.74 in1007.1 mb 0.00 in0.0 mm 0.00 in0.0 mm 0.35 in8.9 mm
02:30 PM 51.6°F10.9°C 44.8°F7.1°C 77% 10.0 mph NNE16.1 kmh NNE 18.0 mph29.0 kmh 29.74 in1007.1 mb 0.00 in0.0 mm 0.00 in0.0 mm 0.35 in8.9 mm
02:33 PM 51.1°F10.6°C 44.4°F6.9°C 78% 9.0 mph NNE14.5 kmh NNE 17.0 mph27.4 kmh 29.74 in1007.1 mb 0.01 in0.3 mm 0.20 in5.1 mm 0.35 in8.9 mm
02:36 PM 50.5°F10.3°C 43.9°F6.6°C 78% 8.0 mph NNE12.9 kmh NNE 15.0 mph24.1 kmh 29.74 in1007.1 mb 0.01 in0.3 mm 0.00 in0.0 mm 0.35 in8.9 mm
02:39 PM 50.2°F10.1°C 43.9°F6.6°C 79% 8.0 mph NNE12.9 kmh NNE 14.0 mph22.5 kmh 29.74 in1007.1 mb 0.01 in0.3 mm 0.00 in0.0 mm 0.35 in8.9 mm
02:42 PM 50.0°F10.0°C 44.1°F6.7°C 80% 8.0 mph N12.9 kmh N 14.0 mph22.5 kmh 29.75 in1007.5 mb 0.01 in0.3 mm 0.00 in0.0 mm 0.35 in8.9 mm
02:45 PM 50.2°F10.1°C 44.8°F7.1°C 82% 7.0 mph N11.3 kmh N 11.0 mph17.7 kmh 29.74 in1007.1 mb 0.01 in0.3 mm 0.00 in0.0 mm 0.35 in8.9 mm
02:48 PM 50.4°F10.2°C 45.0°F7.2°C 82% 7.0 mph N11.3 kmh N 11.0 mph17.7 kmh 29.74 in1007.1 mb 0.01 in0.3 mm 0.00 in0.0 mm 0.35 in8.9 mm
02:51 PM 50.9°F10.5°C 45.9°F7.7°C 83% 7.0 mph N11.3 kmh N 13.0 mph20.9 kmh 29.74 in1007.1 mb 0.01 in0.3 mm 0.00 in0.0 mm 0.35 in8.9 mm
02:54 PM 51.3°F10.7°C 45.3°F7.4°C 80% 9.0 mph N14.5 kmh N 17.0 mph27.4 kmh 29.74 in1007.1 mb 0.01 in0.3 mm 0.00 in0.0 mm 0.35 in8.9 mm
02:57 PM 51.6°F10.9°C 45.7°F7.6°C 80% 10.0 mph N16.1 kmh N 17.0 mph27.4 kmh 29.74 in1007.1 mb 0.01 in0.3 mm 0.00 in0.0 mm 0.35 in8.9 mm
03:00 PM 52.0°F11.1°C 45.7°F7.6°C 79% 11.0 mph N17.7 kmh N 20.0 mph32.2 kmh 29.74 in1007.1 mb 0.01 in0.3 mm 0.00 in0.0 mm 0.35 in8.9 mm
03:03 PM 51.6°F10.9°C 44.6°F7.0°C 77% 12.0 mph N19.3 kmh N 20.0 mph32.2 kmh 29.74 in1007.1 mb 0.01 in0.3 mm 0.00 in0.0 mm 0.35 in8.9 mm
03:06 PM 51.3°F10.7°C 44.2°F6.8°C 77% 13.0 mph N20.9 kmh N 24.0 mph38.6 kmh 29.74 in1007.1 mb 0.01 in0.3 mm 0.00 in0.0 mm 0.35 in8.9 mm
03:09 PM 51.3°F10.7°C 44.6°F7.0°C 78% 13.0 mph N20.9 kmh N 24.0 mph38.6 kmh 29.74 in1007.1 mb 0.01 in0.3 mm 0.00 in0.0 mm 0.35 in8.9 mm
03:12 PM 51.6°F10.9°C 45.0°F7.2°C 78% 12.0 mph N19.3 kmh N 24.0 mph38.6 kmh 29.75 in1007.5 mb 0.01 in0.3 mm 0.00 in0.0 mm 0.35 in8.9 mm
03:15 PM 52.0°F11.1°C 45.7°F7.6°C 79% 12.0 mph N19.3 kmh N 19.0 mph30.6 kmh 29.75 in1007.5 mb 0.01 in0.3 mm 0.00 in0.0 mm 0.35 in8.9 mm
03:18 PM 52.2°F11.2°C 45.5°F7.5°C 78% 11.0 mph N17.7 kmh N 19.0 mph30.6 kmh 29.75 in1007.5 mb 0.01 in0.3 mm 0.00 in0.0 mm 0.35 in8.9 mm
03:21 PM 52.3°F11.3°C 45.7°F7.6°C 78% 11.0 mph N17.7 kmh N 19.0 mph30.6 kmh 29.75 in1007.5 mb 0.01 in0.3 mm 0.00 in0.0 mm 0.35 in8.9 mm
03:24 PM 52.2°F11.2°C 45.1°F7.3°C 77% 11.0 mph N17.7 kmh N 19.0 mph30.6 kmh 29.75 in1007.5 mb 0.01 in0.3 mm 0.00 in0.0 mm 0.35 in8.9 mm
03:27 PM 52.2°F11.2°C 45.5°F7.5°C 78% 11.0 mph N17.7 kmh N 19.0 mph30.6 kmh 29.75 in1007.5 mb 0.01 in0.3 mm 0.00 in0.0 mm 0.35 in8.9 mm
03:30 PM 52.0°F11.1°C 45.0°F7.2°C 77% 11.0 mph N17.7 kmh N 20.0 mph32.2 kmh 29.75 in1007.5 mb 0.01 in0.3 mm 0.00 in0.0 mm 0.35 in8.9 mm
03:33 PM 51.3°F10.7°C 44.1°F6.7°C 76% 12.0 mph N19.3 kmh N 20.0 mph32.2 kmh 29.75 in1007.5 mb 0.00 in0.0 mm 0.00 in0.0 mm 0.35 in8.9 mm
03:36 PM 50.7°F10.4°C 43.7°F6.5°C 77% 12.0 mph N19.3 kmh N 20.0 mph32.2 kmh 29.75 in1007.5 mb 0.00 in0.0 mm 0.00 in0.0 mm 0.35 in8.9 mm
03:39 PM 50.4°F10.2°C 43.7°F6.5°C 78% 11.0 mph N17.7 kmh N 19.0 mph30.6 kmh 29.75 in1007.5 mb 0.00 in0.0 mm 0.00 in0.0 mm 0.35 in8.9 mm
03:42 PM 49.8°F9.9°C 43.3°F6.3°C 78% 11.0 mph N17.7 kmh N 19.0 mph30.6 kmh 29.75 in1007.5 mb 0.00 in0.0 mm 0.00 in0.0 mm 0.35 in8.9 mm
03:45 PM 49.6°F9.8°C 43.0°F6.1°C 78% 10.0 mph N16.1 kmh N 18.0 mph29.0 kmh 29.75 in1007.5 mb 0.00 in0.0 mm 0.00 in0.0 mm 0.35 in8.9 mm
03:48 PM 49.5°F9.7°C 43.2°F6.2°C 79% 10.0 mph N16.1 kmh N 18.0 mph29.0 kmh 29.75 in1007.5 mb 0.00 in0.0 mm 0.00 in0.0 mm 0.35 in8.9 mm
03:51 PM 49.3°F9.6°C 43.3°F6.3°C 80% 10.0 mph N16.1 kmh N 16.0 mph25.7 kmh 29.76 in1007.8 mb 0.00 in0.0 mm 0.00 in0.0 mm 0.35 in8.9 mm
03:54 PM 49.3°F9.6°C 43.7°F6.5°C 81% 9.0 mph N14.5 kmh N 13.0 mph20.9 kmh 29.76 in1007.8 mb 0.00 in0.0 mm 0.00 in0.0 mm 0.35 in8.9 mm
03:57 PM 49.3°F9.6°C 43.7°F6.5°C 81% 8.0 mph N12.9 kmh N 13.0 mph20.9 kmh 29.76 in1007.8 mb 0.00 in0.0 mm 0.00 in0.0 mm 0.35 in8.9 mm
04:00 PM 49.5°F9.7°C 43.9°F6.6°C 81% 8.0 mph NNE12.9 kmh NNE 19.0 mph30.6 kmh 29.76 in1007.8 mb 0.00 in0.0 mm 0.00 in0.0 mm 0.35 in8.9 mm
04:03 PM 49.5°F9.7°C 43.9°F6.6°C 81% 9.0 mph NNE14.5 kmh NNE 19.0 mph30.6 kmh 29.76 in1007.8 mb 0.00 in0.0 mm 0.00 in0.0 mm 0.35 in8.9 mm
04:06 PM 49.3°F9.6°C 43.3°F6.3°C 80% 10.0 mph N16.1 kmh N 19.0 mph30.6 kmh 29.76 in1007.8 mb 0.00 in0.0 mm 0.00 in0.0 mm 0.35 in8.9 mm
04:09 PM 48.9°F9.4°C 43.2°F6.2°C 80% 10.0 mph N16.1 kmh N 19.0 mph30.6 kmh 29.76 in1007.8 mb 0.00 in0.0 mm 0.00 in0.0 mm 0.35 in8.9 mm
04:12 PM 48.7°F9.3°C 43.2°F6.2°C 81% 10.0 mph N16.1 kmh N 17.0 mph27.4 kmh 29.76 in1007.8 mb 0.00 in0.0 mm 0.00 in0.0 mm 0.35 in8.9 mm
04:15 PM 48.7°F9.3°C 43.2°F6.2°C 81% 9.0 mph N14.5 kmh N 16.0 mph25.7 kmh 29.76 in1007.8 mb 0.00 in0.0 mm 0.00 in0.0 mm 0.35 in8.9 mm
04:18 PM 48.6°F9.2°C 43.3°F6.3°C 82% 9.0 mph N14.5 kmh N 14.0 mph22.5 kmh 29.76 in1007.8 mb 0.00 in0.0 mm 0.00 in0.0 mm 0.35 in8.9 mm
04:21 PM 48.6°F9.2°C 43.3°F6.3°C 82% 8.0 mph N12.9 kmh N 14.0 mph22.5 kmh 29.77 in1008.1 mb 0.00 in0.0 mm 0.00 in0.0 mm 0.35 in8.9 mm
04:24 PM 48.6°F9.2°C 43.3°F6.3°C 82% 8.0 mph N12.9 kmh N 14.0 mph22.5 kmh 29.77 in1008.1 mb 0.00 in0.0 mm 0.00 in0.0 mm 0.35 in8.9 mm
04:27 PM 48.4°F9.1°C 43.2°F6.2°C 82% 8.0 mph N12.9 kmh N 14.0 mph22.5 kmh 29.76 in1007.8 mb 0.00 in0.0 mm 0.00 in0.0 mm 0.35 in8.9 mm
04:30 PM 48.6°F9.2°C 43.3°F6.3°C 82% 8.0 mph N12.9 kmh N 12.0 mph19.3 kmh 29.77 in1008.1 mb 0.00 in0.0 mm 0.00 in0.0 mm 0.35 in8.9 mm
04:33 PM 48.6°F9.2°C 43.3°F6.3°C 82% 8.0 mph N12.9 kmh N 15.0 mph24.1 kmh 29.77 in1008.1 mb 0.00 in0.0 mm 0.00 in0.0 mm 0.35 in8.9 mm
04:36 PM 48.6°F9.2°C 43.3°F6.3°C 82% 8.0 mph N12.9 kmh N 15.0 mph24.1 kmh 29.77 in1008.1 mb 0.00 in0.0 mm 0.00 in0.0 mm 0.35 in8.9 mm
04:39 PM 48.7°F9.3°C 43.2°F6.2°C 81% 8.0 mph N12.9 kmh N 15.0 mph24.1 kmh 29.77 in1008.1 mb 0.00 in0.0 mm 0.00 in0.0 mm 0.35 in8.9 mm
04:42 PM 48.9°F9.4°C 43.3°F6.3°C 81% 8.0 mph N12.9 kmh N 14.0 mph22.5 kmh 29.77 in1008.1 mb 0.00 in0.0 mm 0.00 in0.0 mm 0.35 in8.9 mm
04:45 PM 48.9°F9.4°C 43.3°F6.3°C 81% 7.0 mph N11.3 kmh N 14.0 mph22.5 kmh 29.77 in1008.1 mb 0.00 in0.0 mm 0.00 in0.0 mm 0.35 in8.9 mm
04:48 PM 49.1°F9.5°C 43.5°F6.4°C 81% 6.0 mph N9.7 kmh N 13.0 mph20.9 kmh 29.77 in1008.1 mb 0.00 in0.0 mm 0.00 in0.0 mm 0.35 in8.9 mm
04:51 PM 49.3°F9.6°C 43.7°F6.5°C 81% 6.0 mph N9.7 kmh N 13.0 mph20.9 kmh 29.77 in1008.1 mb 0.00 in0.0 mm 0.00 in0.0 mm 0.35 in8.9 mm
04:54 PM 49.5°F9.7°C 43.9°F6.6°C 81% 7.0 mph N11.3 kmh N 13.0 mph20.9 kmh 29.77 in1008.1 mb 0.00 in0.0 mm 0.00 in0.0 mm 0.35 in8.9 mm
04:57 PM 49.5°F9.7°C 43.5°F6.4°C 80% 7.0 mph N11.3 kmh N 12.0 mph19.3 kmh 29.77 in1008.1 mb 0.00 in0.0 mm 0.00 in0.0 mm 0.35 in8.9 mm
05:00 PM 49.6°F9.8°C 43.7°F6.5°C 80% 8.0 mph N12.9 kmh N 13.0 mph20.9 kmh 29.77 in1008.1 mb 0.00 in0.0 mm 0.00 in0.0 mm 0.35 in8.9 mm
05:03 PM 49.6°F9.8°C 43.7°F6.5°C 80% 7.0 mph N11.3 kmh N 13.0 mph20.9 kmh 29.77 in1008.1 mb 0.00 in0.0 mm 0.00 in0.0 mm 0.35 in8.9 mm
05:06 PM 49.8°F9.9°C 43.9°F6.6°C 80% 7.0 mph N11.3 kmh N 13.0 mph20.9 kmh 29.78 in1008.5 mb 0.00 in0.0 mm 0.00 in0.0 mm 0.35 in8.9 mm
05:09 PM 49.8°F9.9°C 43.5°F6.4°C 79% 7.0 mph N11.3 kmh N 13.0 mph20.9 kmh 29.78 in1008.5 mb 0.00 in0.0 mm 0.00 in0.0 mm 0.35 in8.9 mm
05:12 PM 49.6°F9.8°C 43.5°F6.4°C 79% 7.0 mph N11.3 kmh N 12.0 mph19.3 kmh 29.78 in1008.5 mb 0.00 in0.0 mm 0.00 in0.0 mm 0.35 in8.9 mm
05:15 PM 49.6°F9.8°C 43.5°F6.4°C 79% 7.0 mph N11.3 kmh N 12.0 mph19.3 kmh 29.78 in1008.5 mb 0.00 in0.0 mm 0.00 in0.0 mm 0.35 in8.9 mm
05:18 PM 49.6°F9.8°C 43.5°F6.4°C 79% 6.0 mph NNE9.7 kmh NNE 11.0 mph17.7 kmh 29.78 in1008.5 mb 0.00 in0.0 mm 0.00 in0.0 mm 0.35 in8.9 mm
05:21 PM 49.6°F9.8°C 43.0°F6.1°C 78% 6.0 mph NNE9.7 kmh NNE 13.0 mph20.9 kmh 29.78 in1008.5 mb 0.00 in0.0 mm 0.00 in0.0 mm 0.35 in8.9 mm
05:24 PM 49.6°F9.8°C 43.3°F6.3°C 79% 6.0 mph NNE9.7 kmh NNE 13.0 mph20.9 kmh 29.78 in1008.5 mb 0.00 in0.0 mm 0.00 in0.0 mm 0.35 in8.9 mm
05:27 PM 49.5°F9.7°C 43.3°F6.3°C 79% 6.0 mph NE9.7 kmh NE 13.0 mph20.9 kmh 29.78 in1008.5 mb 0.00 in0.0 mm 0.00 in0.0 mm 0.35 in8.9 mm
05:30 PM 49.5°F9.7°C 43.3°F6.3°C 79% 5.0 mph NNE8.0 kmh NNE 10.0 mph16.1 kmh 29.78 in1008.5 mb 0.00 in0.0 mm 0.00 in0.0 mm 0.35 in8.9 mm
05:33 PM 49.5°F9.7°C 43.2°F6.2°C 79% 5.0 mph NE8.0 kmh NE 11.0 mph17.7 kmh 29.78 in1008.5 mb 0.00 in0.0 mm 0.00 in0.0 mm 0.35 in8.9 mm
05:36 PM 49.1°F9.5°C 43.2°F6.2°C 80% 4.0 mph NE6.4 kmh NE 11.0 mph17.7 kmh 29.78 in1008.5 mb 0.00 in0.0 mm 0.00 in0.0 mm 0.35 in8.9 mm
05:39 PM 48.9°F9.4°C 43.0°F6.1°C 80% 5.0 mph NE8.0 kmh NE 11.0 mph17.7 kmh 29.79 in1008.8 mb 0.00 in0.0 mm 0.00 in0.0 mm 0.35 in8.9 mm
05:42 PM 48.7°F9.3°C 42.8°F6.0°C 80% 5.0 mph NE8.0 kmh NE 11.0 mph17.7 kmh 29.79 in1008.8 mb 0.00 in0.0 mm 0.00 in0.0 mm 0.35 in8.9 mm
05:45 PM 48.6°F9.2°C 43.0°F6.1°C 81% 5.0 mph NE8.0 kmh NE 11.0 mph17.7 kmh 29.79 in1008.8 mb 0.00 in0.0 mm 0.00 in0.0 mm 0.35 in8.9 mm
05:48 PM 48.7°F9.3°C 43.2°F6.2°C 81% 4.0 mph NE6.4 kmh NE 10.0 mph16.1 kmh 29.78 in1008.5 mb 0.00 in0.0 mm 0.00 in0.0 mm 0.35 in8.9 mm
05:51 PM 48.6°F9.2°C 42.6°F5.9°C 80% 4.0 mph NE6.4 kmh NE 10.0 mph16.1 kmh 29.79 in1008.8 mb 0.00 in0.0 mm 0.00 in0.0 mm 0.35 in8.9 mm
05:54 PM 48.7°F9.3°C 42.8°F6.0°C 80% 5.0 mph NNE8.0 kmh NNE 12.0 mph19.3 kmh 29.79 in1008.8 mb 0.00 in0.0 mm 0.00 in0.0 mm 0.35 in8.9 mm
05:57 PM 48.7°F9.3°C 42.8°F6.0°C 80% 6.0 mph NNE9.7 kmh NNE 14.0 mph22.5 kmh 29.79 in1008.8 mb 0.00 in0.0 mm 0.00 in0.0 mm 0.35 in8.9 mm
06:00 PM 48.7°F9.3°C 42.6°F5.9°C 79% 7.0 mph NNE11.3 kmh NNE 14.0 mph22.5 kmh 29.79 in1008.8 mb 0.00 in0.0 mm 0.00 in0.0 mm 0.35 in8.9 mm
06:03 PM 48.7°F9.3°C 42.6°F5.9°C 79% 7.0 mph NNE11.3 kmh NNE 14.0 mph22.5 kmh 29.79 in1008.8 mb 0.00 in0.0 mm 0.00 in0.0 mm 0.35 in8.9 mm
06:06 PM 48.7°F9.3°C 42.6°F5.9°C 79% 6.0 mph NNE9.7 kmh NNE 11.0 mph17.7 kmh 29.79 in1008.8 mb 0.00 in0.0 mm 0.00 in0.0 mm 0.35 in8.9 mm
06:09 PM 48.7°F9.3°C 42.3°F5.7°C 78% 5.0 mph NNE8.0 kmh NNE 10.0 mph16.1 kmh 29.79 in1008.8 mb 0.00 in0.0 mm 0.00 in0.0 mm 0.35 in8.9 mm
06:12 PM 48.7°F9.3°C 42.6°F5.9°C 79% 5.0 mph NNE8.0 kmh NNE 9.0 mph14.5 kmh 29.79 in1008.8 mb 0.00 in0.0 mm 0.00 in0.0 mm 0.35 in8.9 mm
06:15 PM 48.7°F9.3°C 42.6°F5.9°C 79% 5.0 mph NNE8.0 kmh NNE 11.0 mph17.7 kmh 29.79 in1008.8 mb 0.00 in0.0 mm 0.00 in0.0 mm 0.35 in8.9 mm
06:18 PM 48.7°F9.3°C 42.3°F5.7°C 78% 5.0 mph NNE8.0 kmh NNE 11.0 mph17.7 kmh 29.79 in1008.8 mb 0.00 in0.0 mm 0.00 in0.0 mm 0.35 in8.9 mm
06:21 PM 48.7°F9.3°C 42.3°F5.7°C 78% 6.0 mph NNE9.7 kmh NNE 11.0 mph17.7 kmh 29.79 in1008.8 mb 0.00 in0.0 mm 0.00 in0.0 mm 0.35 in8.9 mm
06:24 PM 48.7°F9.3°C 42.3°F5.7°C 78% 6.0 mph NNE9.7 kmh NNE 11.0 mph17.7 kmh 29.79 in1008.8 mb 0.00 in0.0 mm 0.00 in0.0 mm 0.35 in8.9 mm
06:27 PM 48.7°F9.3°C 42.4°F5.8°C 79% 6.0 mph NNE9.7 kmh NNE 14.0 mph22.5 kmh 29.79 in1008.8 mb 0.00 in0.0 mm 0.00 in0.0 mm 0.35 in8.9 mm
06:30 PM 48.7°F9.3°C 42.4°F5.8°C 79% 6.0 mph NE9.7 kmh NE 14.0 mph22.5 kmh 29.80 in1009.1 mb 0.00 in0.0 mm 0.00 in0.0 mm 0.35 in8.9 mm
06:33 PM 48.6°F9.2°C 42.4°F5.8°C 79% 6.0 mph NE9.7 kmh NE 14.0 mph22.5 kmh 29.79 in1008.8 mb 0.00 in0.0 mm 0.00 in0.0 mm 0.35 in8.9 mm
06:36 PM 48.6°F9.2°C 42.3°F5.7°C 79% 6.0 mph NE9.7 kmh NE 14.0 mph22.5 kmh 29.80 in1009.1 mb 0.00 in0.0 mm 0.00 in0.0 mm 0.35 in8.9 mm
06:39 PM 48.4°F9.1°C 42.4°F5.8°C 80% 5.0 mph NE8.0 kmh NE 10.0 mph16.1 kmh 29.80 in1009.1 mb 0.00 in0.0 mm 0.00 in0.0 mm 0.35 in8.9 mm
06:42 PM 48.4°F9.1°C 42.8°F6.0°C 81% 5.0 mph NE8.0 kmh NE 10.0 mph16.1 kmh 29.80 in1009.1 mb 0.00 in0.0 mm 0.00 in0.0 mm 0.35 in8.9 mm
06:45 PM 48.2°F9.0°C 42.6°F5.9°C 81% 4.0 mph NE6.4 kmh NE 9.0 mph14.5 kmh 29.80 in1009.1 mb 0.00 in0.0 mm 0.00 in0.0 mm 0.35 in8.9 mm
06:48 PM 48.0°F8.9°C 42.8°F6.0°C 82% 4.0 mph NE6.4 kmh NE 9.0 mph14.5 kmh 29.80 in1009.1 mb 0.00 in0.0 mm 0.00 in0.0 mm 0.35 in8.9 mm
06:51 PM 48.0°F8.9°C 42.8°F6.0°C 82% 4.0 mph NE6.4 kmh NE 9.0 mph14.5 kmh 29.80 in1009.1 mb 0.00 in0.0 mm 0.00 in0.0 mm 0.35 in8.9 mm
06:54 PM 48.0°F8.9°C 43.2°F6.2°C 83% 4.0 mph NNE6.4 kmh NNE 7.0 mph11.3 kmh 29.80 in1009.1 mb 0.00 in0.0 mm 0.00 in0.0 mm 0.35 in8.9 mm
06:57 PM 47.8°F8.8°C 43.0°F6.1°C 83% 3.0 mph NNE4.8 kmh NNE 7.0 mph11.3 kmh 29.80 in1009.1 mb 0.00 in0.0 mm 0.00 in0.0 mm 0.35 in8.9 mm
07:00 PM 47.8°F8.8°C 42.8°F6.0°C 83% 3.0 mph N4.8 kmh N 6.0 mph9.7 kmh 29.80 in1009.1 mb 0.00 in0.0 mm 0.00 in0.0 mm 0.35 in8.9 mm
07:03 PM 47.8°F8.8°C 42.8°F6.0°C 83% 4.0 mph N6.4 kmh N 8.0 mph12.9 kmh 29.80 in1009.1 mb 0.00 in0.0 mm 0.00 in0.0 mm 0.35 in8.9 mm
07:06 PM 47.7°F8.7°C 42.8°F6.0°C 83% 4.0 mph N6.4 kmh N 8.0 mph12.9 kmh 29.80 in1009.1 mb 0.00 in0.0 mm 0.00 in0.0 mm 0.35 in8.9 mm
07:09 PM 47.7°F8.7°C 42.8°F6.0°C 83% 4.0 mph N6.4 kmh N 8.0 mph12.9 kmh 29.80 in1009.1 mb 0.00 in0.0 mm 0.00 in0.0 mm 0.35 in8.9 mm
07:12 PM 47.7°F8.7°C 42.6°F5.9°C 83% 4.0 mph N6.4 kmh N 8.0 mph12.9 kmh 29.80 in1009.1 mb 0.00 in0.0 mm 0.00 in0.0 mm 0.35 in8.9 mm
07:15 PM 47.7°F8.7°C 43.0°F6.1°C 84% 3.0 mph N4.8 kmh N 6.0 mph9.7 kmh 29.81 in1009.5 mb 0.00 in0.0 mm 0.00 in0.0 mm 0.35 in8.9 mm
07:18 PM 47.5°F8.6°C 43.0°F6.1°C 84% 3.0 mph N4.8 kmh N 6.0 mph9.7 kmh 29.81 in1009.5 mb 0.00 in0.0 mm 0.00 in0.0 mm 0.35 in8.9 mm
07:21 PM 47.5°F8.6°C 43.0°F6.1°C 84% 3.0 mph N4.8 kmh N 6.0 mph9.7 kmh 29.81 in1009.5 mb 0.00 in0.0 mm 0.00 in0.0 mm 0.35 in8.9 mm
07:24 PM 47.5°F8.6°C 42.8°F6.0°C 84% 2.0 mph N3.2 kmh N 4.0 mph6.4 kmh 29.81 in1009.5 mb 0.00 in0.0 mm 0.00 in0.0 mm 0.35 in8.9 mm
07:27 PM 47.5°F8.6°C 42.8°F6.0°C 84% 3.0 mph N4.8 kmh N 5.0 mph8.0 kmh 29.81 in1009.5 mb 0.00 in0.0 mm 0.00 in0.0 mm 0.35 in8.9 mm
07:30 PM 47.5°F8.6°C 42.8°F6.0°C 84% 3.0 mph N4.8 kmh N 6.0 mph9.7 kmh 29.81 in1009.5 mb 0.00 in0.0 mm 0.00 in0.0 mm 0.35 in8.9 mm
07:33 PM 47.3°F8.5°C 42.6°F5.9°C 84% 4.0 mph N6.4 kmh N 6.0 mph9.7 kmh 29.81 in1009.5 mb 0.00 in0.0 mm 0.00 in0.0 mm 0.35 in8.9 mm
07:36 PM 47.3°F8.5°C 42.6°F5.9°C 84% 4.0 mph N6.4 kmh N 6.0 mph9.7 kmh 29.81 in1009.5 mb 0.00 in0.0 mm 0.00 in0.0 mm 0.35 in8.9 mm
07:39 PM 47.3°F8.5°C 42.6°F5.9°C 84% 4.0 mph N6.4 kmh N 8.0 mph12.9 kmh 29.82 in1009.8 mb 0.00 in0.0 mm 0.00 in0.0 mm 0.35 in8.9 mm
07:42 PM 47.3°F8.5°C 42.6°F5.9°C 84% 4.0 mph N6.4 kmh N 8.0 mph12.9 kmh 29.82 in1009.8 mb 0.00 in0.0 mm 0.00 in0.0 mm 0.35 in8.9 mm
07:45 PM 47.3°F8.5°C 42.6°F5.9°C 84% 4.0 mph N6.4 kmh N 8.0 mph12.9 kmh 29.82 in1009.8 mb 0.00 in0.0 mm 0.00 in0.0 mm 0.35 in8.9 mm
07:48 PM 47.3°F8.5°C 42.6°F5.9°C 84% 4.0 mph N6.4 kmh N 8.0 mph12.9 kmh 29.82 in1009.8 mb 0.00 in0.0 mm 0.00 in0.0 mm 0.35 in8.9 mm
07:51 PM 47.1°F8.4°C 42.6°F5.9°C 84% 4.0 mph N6.4 kmh N 6.0 mph9.7 kmh 29.82 in1009.8 mb 0.00 in0.0 mm 0.00 in0.0 mm 0.35 in8.9 mm
07:54 PM 47.1°F8.4°C 42.3°F5.7°C 83% 4.0 mph N6.4 kmh N 9.0 mph14.5 kmh 29.82 in1009.8 mb 0.00 in0.0 mm 0.00 in0.0 mm 0.35 in8.9 mm
07:57 PM 47.1°F8.4°C 42.3°F5.7°C 83% 5.0 mph N8.0 kmh N 9.0 mph14.5 kmh 29.82 in1009.8 mb 0.00 in0.0 mm 0.00 in0.0 mm 0.35 in8.9 mm
08:00 PM 47.1°F8.4°C 42.3°F5.7°C 83% 4.0 mph N6.4 kmh N 9.0 mph14.5 kmh 29.82 in1009.8 mb 0.00 in0.0 mm 0.00 in0.0 mm 0.35 in8.9 mm
08:03 PM 46.9°F8.3°C 41.7°F5.4°C 82% 4.0 mph N6.4 kmh N 8.0 mph12.9 kmh 29.82 in1009.8 mb 0.00 in0.0 mm 0.00 in0.0 mm 0.35 in8.9 mm
08:06 PM 46.9°F8.3°C 41.7°F5.4°C 82% 4.0 mph N6.4 kmh N 6.0 mph9.7 kmh 29.83 in1010.2 mb 0.00 in0.0 mm 0.00 in0.0 mm 0.35 in8.9 mm
08:09 PM 46.9°F8.3°C 41.7°F5.4°C 82% 4.0 mph N6.4 kmh N 8.0 mph12.9 kmh 29.83 in1010.2 mb 0.00 in0.0 mm 0.00 in0.0 mm 0.35 in8.9 mm
08:12 PM 46.9°F8.3°C 41.7°F5.4°C 82% 4.0 mph N6.4 kmh N 8.0 mph12.9 kmh 29.83 in1010.2 mb 0.00 in0.0 mm 0.00 in0.0 mm 0.35 in8.9 mm
08:15 PM 46.9°F8.3°C 41.4°F5.2°C 81% 4.0 mph N6.4 kmh N 8.0 mph12.9 kmh 29.83 in1010.2 mb 0.00 in0.0 mm 0.00 in0.0 mm 0.35 in8.9 mm
08:18 PM 46.9°F8.3°C 41.4°F5.2°C 81% 3.0 mph N4.8 kmh N 8.0 mph12.9 kmh 29.83 in1010.2 mb 0.00 in0.0 mm 0.00 in0.0 mm 0.35 in8.9 mm
08:21 PM 46.8°F8.2°C 41.4°F5.2°C 81% 3.0 mph N4.8 kmh N 6.0 mph9.7 kmh 29.83 in1010.2 mb 0.00 in0.0 mm 0.00 in0.0 mm 0.35 in8.9 mm
08:24 PM 46.8°F8.2°C 41.4°F5.2°C 81% 3.0 mph N4.8 kmh N 5.0 mph8.0 kmh 29.83 in1010.2 mb 0.00 in0.0 mm 0.00 in0.0 mm 0.35 in8.9 mm
08:27 PM 46.8°F8.2°C 41.2°F5.1°C 81% 3.0 mph N4.8 kmh N 5.0 mph8.0 kmh 29.84 in1010.5 mb 0.00 in0.0 mm 0.00 in0.0 mm 0.35 in8.9 mm
08:30 PM 46.6°F8.1°C 41.4°F5.2°C 82% 3.0 mph N4.8 kmh N 5.0 mph8.0 kmh 29.84 in1010.5 mb 0.00 in0.0 mm 0.00 in0.0 mm 0.35 in8.9 mm
08:33 PM 46.6°F8.1°C 41.4°F5.2°C 82% 3.0 mph NNW4.8 kmh NNW 5.0 mph8.0 kmh 29.84 in1010.5 mb 0.00 in0.0 mm 0.00 in0.0 mm 0.35 in8.9 mm
08:36 PM 46.4°F8.0°C 41.2°F5.1°C 82% 3.0 mph NNW4.8 kmh NNW 5.0 mph8.0 kmh 29.84 in1010.5 mb 0.00 in0.0 mm 0.00 in0.0 mm 0.35 in8.9 mm
08:39 PM 46.2°F7.9°C 41.2°F5.1°C 82% 3.0 mph NNW4.8 kmh NNW 6.0 mph9.7 kmh 29.84 in1010.5 mb 0.00 in0.0 mm 0.00 in0.0 mm 0.35 in8.9 mm
08:42 PM 46.2°F7.9°C 41.4°F5.2°C 83% 3.0 mph NNW4.8 kmh NNW 6.0 mph9.7 kmh 29.84 in1010.5 mb 0.00 in0.0 mm 0.00 in0.0 mm 0.35 in8.9 mm
08:45 PM 46.2°F7.9°C 41.4°F5.2°C 83% 4.0 mph NNW6.4 kmh NNW 6.0 mph9.7 kmh 29.84 in1010.5 mb 0.00 in0.0 mm 0.00 in0.0 mm 0.35 in8.9 mm
08:48 PM 46.0°F7.8°C 41.5°F5.3°C 84% 4.0 mph NNW6.4 kmh NNW 6.0 mph9.7 kmh 29.84 in1010.5 mb 0.00 in0.0 mm 0.00 in0.0 mm 0.35 in8.9 mm
08:51 PM 46.0°F7.8°C 41.4°F5.2°C 84% 4.0 mph NNW6.4 kmh NNW 6.0 mph9.7 kmh 29.84 in1010.5 mb 0.00 in0.0 mm 0.00 in0.0 mm 0.35 in8.9 mm
08:54 PM 45.9°F7.7°C 41.7°F5.4°C 85% 4.0 mph NNW6.4 kmh NNW 6.0 mph9.7 kmh 29.84 in1010.5 mb 0.00 in0.0 mm 0.00 in0.0 mm 0.35 in8.9 mm
08:57 PM 45.9°F7.7°C 41.7°F5.4°C 85% 4.0 mph NNW6.4 kmh NNW 6.0 mph9.7 kmh 29.85 in1010.8 mb 0.00 in0.0 mm 0.00 in0.0 mm 0.35 in8.9 mm
09:00 PM 45.9°F7.7°C 41.5°F5.3°C 85% 4.0 mph NNW6.4 kmh NNW 8.0 mph12.9 kmh 29.85 in1010.8 mb 0.00 in0.0 mm 0.00 in0.0 mm 0.35 in8.9 mm
09:03 PM 45.9°F7.7°C 41.9°F5.5°C 86% 5.0 mph NNW8.0 kmh NNW 8.0 mph12.9 kmh 29.85 in1010.8 mb 0.00 in0.0 mm 0.00 in0.0 mm 0.35 in8.9 mm
09:06 PM 45.9°F7.7°C 41.9°F5.5°C 86% 5.0 mph NNW8.0 kmh NNW 8.0 mph12.9 kmh 29.85 in1010.8 mb 0.00 in0.0 mm 0.00 in0.0 mm 0.35 in8.9 mm
09:09 PM 45.7°F7.6°C 41.7°F5.4°C 86% 5.0 mph NNW8.0 kmh NNW 8.0 mph12.9 kmh 29.85 in1010.8 mb 0.00 in0.0 mm 0.00 in0.0 mm 0.35 in8.9 mm
09:12 PM 45.7°F7.6°C 41.7°F5.4°C 86% 4.0 mph NNW6.4 kmh NNW 6.0 mph9.7 kmh 29.85 in1010.8 mb 0.00 in0.0 mm 0.00 in0.0 mm 0.35 in8.9 mm
09:15 PM 45.7°F7.6°C 42.1°F5.6°C 87% 4.0 mph NNW6.4 kmh NNW 6.0 mph9.7 kmh 29.85 in1010.8 mb 0.00 in0.0 mm 0.00 in0.0 mm 0.35 in8.9 mm
09:18 PM 45.7°F7.6°C 42.1°F5.6°C 87% 4.0 mph NNW6.4 kmh NNW 5.0 mph8.0 kmh 29.85 in1010.8 mb 0.00 in0.0 mm 0.00 in0.0 mm 0.35 in8.9 mm
09:21 PM 45.7°F7.6°C 41.9°F5.5°C 87% 3.0 mph NNW4.8 kmh NNW 5.0 mph8.0 kmh 29.85 in1010.8 mb 0.00 in0.0 mm 0.00 in0.0 mm 0.35 in8.9 mm
09:24 PM 45.7°F7.6°C 41.9°F5.5°C 87% 3.0 mph NNW4.8 kmh NNW 6.0 mph9.7 kmh 29.85 in1010.8 mb 0.00 in0.0 mm 0.00 in0.0 mm 0.35 in8.9 mm
09:27 PM 45.7°F7.6°C 41.9°F5.5°C 87% 3.0 mph NNW4.8 kmh NNW 6.0 mph9.7 kmh 29.85 in1010.8 mb 0.00 in0.0 mm 0.00 in0.0 mm 0.35 in8.9 mm
09:30 PM 45.7°F7.6°C 41.9°F5.5°C 87% 4.0 mph NNW6.4 kmh NNW 9.0 mph14.5 kmh 29.85 in1010.8 mb 0.00 in0.0 mm 0.00 in0.0 mm 0.35 in8.9 mm
09:33 PM 45.5°F7.5°C 42.1°F5.6°C 88% 5.0 mph NNW8.0 kmh NNW 9.0 mph14.5 kmh 29.85 in1010.8 mb 0.00 in0.0 mm 0.00 in0.0 mm 0.35 in8.9 mm
09:36 PM 45.5°F7.5°C 42.1°F5.6°C 88% 5.0 mph NNW8.0 kmh NNW 9.0 mph14.5 kmh 29.85 in1010.8 mb 0.00 in0.0 mm 0.00 in0.0 mm 0.35 in8.9 mm
09:39 PM 45.7°F7.6°C 42.3°F5.7°C 88% 5.0 mph NNW8.0 kmh NNW 9.0 mph14.5 kmh 29.85 in1010.8 mb 0.00 in0.0 mm 0.00 in0.0 mm 0.35 in8.9 mm
09:42 PM 45.7°F7.6°C 42.1°F5.6°C 87% 6.0 mph NNW9.7 kmh NNW 9.0 mph14.5 kmh 29.85 in1010.8 mb 0.00 in0.0 mm 0.00 in0.0 mm 0.35 in8.9 mm
09:45 PM 45.7°F7.6°C 42.1°F5.6°C 87% 6.0 mph NNW9.7 kmh NNW 12.0 mph19.3 kmh 29.85 in1010.8 mb 0.00 in0.0 mm 0.00 in0.0 mm 0.35 in8.9 mm
09:48 PM 45.9°F7.7°C 42.1°F5.6°C 87% 6.0 mph NNW9.7 kmh NNW 12.0 mph19.3 kmh 29.85 in1010.8 mb 0.00 in0.0 mm 0.00 in0.0 mm 0.35 in8.9 mm
09:51 PM 45.9°F7.7°C 42.1°F5.6°C 87% 6.0 mph NNW9.7 kmh NNW 12.0 mph19.3 kmh 29.85 in1010.8 mb 0.00 in0.0 mm 0.00 in0.0 mm 0.35 in8.9 mm
09:54 PM 45.9°F7.7°C 42.3°F5.7°C 87% 6.0 mph NNW9.7 kmh NNW 10.0 mph16.1 kmh 29.85 in1010.8 mb 0.00 in0.0 mm 0.00 in0.0 mm 0.35 in8.9 mm
09:57 PM 45.9°F7.7°C 42.1°F5.6°C 87% 6.0 mph NNW9.7 kmh NNW 11.0 mph17.7 kmh 29.85 in1010.8 mb 0.00 in0.0 mm 0.00 in0.0 mm 0.35 in8.9 mm
10:00 PM 45.9°F7.7°C 42.3°F5.7°C 87% 5.0 mph NNW8.0 kmh NNW 11.0 mph17.7 kmh 29.85 in1010.8 mb 0.00 in0.0 mm 0.00 in0.0 mm 0.35 in8.9 mm
10:03 PM 45.9°F7.7°C 42.1°F5.6°C 87% 5.0 mph NNW8.0 kmh NNW 11.0 mph17.7 kmh 29.85 in1010.8 mb 0.00 in0.0 mm 0.00 in0.0 mm 0.35 in8.9 mm
10:06 PM 45.9°F7.7°C 42.1°F5.6°C 87% 5.0 mph NNW8.0 kmh NNW 10.0 mph16.1 kmh 29.85 in1010.8 mb 0.00 in0.0 mm 0.00 in0.0 mm 0.35 in8.9 mm
10:09 PM 45.9°F7.7°C 42.1°F5.6°C 87% 4.0 mph NNW6.4 kmh NNW 10.0 mph16.1 kmh 29.85 in1010.8 mb 0.00 in0.0 mm 0.00 in0.0 mm 0.35 in8.9 mm
10:12 PM 45.7°F7.6°C 42.1°F5.6°C 87% 4.0 mph NNW6.4 kmh NNW 9.0 mph14.5 kmh 29.85 in1010.8 mb 0.00 in0.0 mm 0.00 in0.0 mm 0.35 in8.9 mm
10:15 PM 45.7°F7.6°C 41.9°F5.5°C 87% 5.0 mph NNW8.0 kmh NNW 10.0 mph16.1 kmh 29.85 in1010.8 mb 0.00 in0.0 mm 0.00 in0.0 mm 0.35 in8.9 mm
10:18 PM 45.5°F7.5°C 41.9°F5.5°C 87% 5.0 mph NNW8.0 kmh NNW 10.0 mph16.1 kmh 29.85 in1010.8 mb 0.00 in0.0 mm 0.00 in0.0 mm 0.35 in8.9 mm
10:21 PM 45.5°F7.5°C 41.9°F5.5°C 87% 5.0 mph NNW8.0 kmh NNW 10.0 mph16.1 kmh 29.85 in1010.8 mb 0.00 in0.0 mm 0.00 in0.0 mm 0.35 in8.9 mm
10:24 PM 45.3°F7.4°C 41.7°F5.4°C 87% 5.0 mph NNW8.0 kmh NNW 10.0 mph16.1 kmh 29.85 in1010.8 mb 0.00 in0.0 mm 0.00 in0.0 mm 0.35 in8.9 mm
10:27 PM 45.3°F7.4°C 41.7°F5.4°C 87% 4.0 mph NNW6.4 kmh NNW 8.0 mph12.9 kmh 29.85 in1010.8 mb 0.00 in0.0 mm 0.00 in0.0 mm 0.35 in8.9 mm
10:30 PM 45.3°F7.4°C 41.7°F5.4°C 87% 4.0 mph NNW6.4 kmh NNW 8.0 mph12.9 kmh 29.85 in1010.8 mb 0.00 in0.0 mm 0.00 in0.0 mm 0.35 in8.9 mm
10:33 PM 45.1°F7.3°C 41.5°F5.3°C 87% 3.0 mph NNW4.8 kmh NNW 6.0 mph9.7 kmh 29.85 in1010.8 mb 0.00 in0.0 mm 0.00 in0.0 mm 0.35 in8.9 mm
10:36 PM 45.1°F7.3°C 41.5°F5.3°C 87% 3.0 mph NNW4.8 kmh NNW 6.0 mph9.7 kmh 29.85 in1010.8 mb 0.00 in0.0 mm 0.00 in0.0 mm 0.35 in8.9 mm
10:39 PM 45.0°F7.2°C 41.4°F5.2°C 87% 3.0 mph NNW4.8 kmh NNW 5.0 mph8.0 kmh 29.85 in1010.8 mb 0.00 in0.0 mm 0.00 in0.0 mm 0.35 in8.9 mm
10:42 PM 45.0°F7.2°C 41.4°F5.2°C 87% 3.0 mph NW4.8 kmh NW 5.0 mph8.0 kmh 29.85 in1010.8 mb 0.00 in0.0 mm 0.00 in0.0 mm 0.35 in8.9 mm
10:45 PM 45.0°F7.2°C 41.5°F5.3°C 88% 3.0 mph NW4.8 kmh NW 5.0 mph8.0 kmh 29.85 in1010.8 mb 0.00 in0.0 mm 0.00 in0.0 mm 0.35 in8.9 mm
10:48 PM 45.0°F7.2°C 41.5°F5.3°C 88% 2.0 mph NW3.2 kmh NW 5.0 mph8.0 kmh 29.85 in1010.8 mb 0.00 in0.0 mm 0.00 in0.0 mm 0.35 in8.9 mm
10:51 PM 44.8°F7.1°C 41.5°F5.3°C 88% 2.0 mph NW3.2 kmh NW 4.0 mph6.4 kmh 29.85 in1010.8 mb 0.00 in0.0 mm 0.00 in0.0 mm 0.35 in8.9 mm
10:54 PM 44.8°F7.1°C 41.4°F5.2°C 88% 3.0 mph NW4.8 kmh NW 6.0 mph9.7 kmh 29.85 in1010.8 mb 0.00 in0.0 mm 0.00 in0.0 mm 0.35 in8.9 mm
10:57 PM 44.6°F7.0°C 41.2°F5.1°C 88% 3.0 mph NW4.8 kmh NW 6.0 mph9.7 kmh 29.85 in1010.8 mb 0.00 in0.0 mm 0.00 in0.0 mm 0.35 in8.9 mm
11:00 PM 44.4°F6.9°C 41.2°F5.1°C 88% 3.0 mph NW4.8 kmh NW 6.0 mph9.7 kmh 29.85 in1010.8 mb 0.00 in0.0 mm 0.00 in0.0 mm 0.22 in5.6 mm
11:03 PM 44.4°F6.9°C 41.2°F5.1°C 88% 3.0 mph NW4.8 kmh NW 6.0 mph9.7 kmh 29.85 in1010.8 mb 0.00 in0.0 mm 0.00 in0.0 mm 0.22 in5.6 mm
11:06 PM 44.4°F6.9°C 41.0°F5.0°C 88% 3.0 mph NW4.8 kmh NW 6.0 mph9.7 kmh 29.85 in1010.8 mb 0.00 in0.0 mm 0.00 in0.0 mm 0.22 in5.6 mm
11:09 PM 44.2°F6.8°C 41.0°F5.0°C 88% 3.0 mph NNW4.8 kmh NNW 8.0 mph12.9 kmh 29.85 in1010.8 mb 0.00 in0.0 mm 0.00 in0.0 mm 0.22 in5.6 mm
11:12 PM 44.2°F6.8°C 41.0°F5.0°C 88% 3.0 mph NNW4.8 kmh NNW 8.0 mph12.9 kmh 29.85 in1010.8 mb 0.00 in0.0 mm 0.00 in0.0 mm 0.22 in5.6 mm
11:15 PM 44.2°F6.8°C 40.8°F4.9°C 88% 3.0 mph NW4.8 kmh NW 8.0 mph12.9 kmh 29.85 in1010.8 mb 0.00 in0.0 mm 0.00 in0.0 mm 0.22 in5.6 mm
11:18 PM 44.2°F6.8°C 40.8°F4.9°C 88% 4.0 mph NW6.4 kmh NW 9.0 mph14.5 kmh 29.85 in1010.8 mb 0.00 in0.0 mm 0.00 in0.0 mm 0.22 in5.6 mm
11:21 PM 44.1°F6.7°C 40.8°F4.9°C 88% 4.0 mph NW6.4 kmh NW 9.0 mph14.5 kmh 29.85 in1010.8 mb 0.00 in0.0 mm 0.00 in0.0 mm 0.22 in5.6 mm
11:24 PM 44.1°F6.7°C 40.8°F4.9°C 88% 4.0 mph NW6.4 kmh NW 9.0 mph14.5 kmh 29.85 in1010.8 mb 0.00 in0.0 mm 0.00 in0.0 mm 0.22 in5.6 mm
11:27 PM 44.1°F6.7°C 40.6°F4.8°C 88% 5.0 mph NNW8.0 kmh NNW 10.0 mph16.1 kmh 29.85 in1010.8 mb 0.00 in0.0 mm 0.00 in0.0 mm 0.22 in5.6 mm
11:30 PM 44.1°F6.7°C 40.6°F4.8°C 88% 6.0 mph NNW9.7 kmh NNW 10.0 mph16.1 kmh 29.85 in1010.8 mb 0.00 in0.0 mm 0.00 in0.0 mm 0.22 in5.6 mm
11:33 PM 44.1°F6.7°C 40.6°F4.8°C 88% 7.0 mph NNW11.3 kmh NNW 11.0 mph17.7 kmh 29.85 in1010.8 mb 0.00 in0.0 mm 0.00 in0.0 mm 0.22 in5.6 mm
11:36 PM 44.1°F6.7°C 40.6°F4.8°C 88% 7.0 mph NNW11.3 kmh NNW 12.0 mph19.3 kmh 29.85 in1010.8 mb 0.00 in0.0 mm 0.00 in0.0 mm 0.22 in5.6 mm
11:39 PM 44.1°F6.7°C 40.6°F4.8°C 88% 8.0 mph NNW12.9 kmh NNW 12.0 mph19.3 kmh 29.85 in1010.8 mb 0.00 in0.0 mm 0.00 in0.0 mm 0.22 in5.6 mm
11:42 PM 44.1°F6.7°C 40.6°F4.8°C 88% 9.0 mph NNW14.5 kmh NNW 13.0 mph20.9 kmh 29.85 in1010.8 mb 0.00 in0.0 mm 0.00 in0.0 mm 0.22 in5.6 mm
11:45 PM 44.1°F6.7°C 40.6°F4.8°C 88% 9.0 mph NNW14.5 kmh NNW 13.0 mph20.9 kmh 29.85 in1010.8 mb 0.00 in0.0 mm 0.00 in0.0 mm 0.22 in5.6 mm
11:48 PM 44.1°F6.7°C 40.8°F4.9°C 88% 9.0 mph NNW14.5 kmh NNW 13.0 mph20.9 kmh 29.85 in1010.8 mb 0.00 in0.0 mm 0.00 in0.0 mm 0.22 in5.6 mm
11:51 PM 44.1°F6.7°C 40.5°F4.7°C 87% 9.0 mph NNW14.5 kmh NNW 12.0 mph19.3 kmh 29.85 in1010.8 mb 0.00 in0.0 mm 0.00 in0.0 mm 0.22 in5.6 mm
11:54 PM 44.1°F6.7°C 40.5°F4.7°C 87% 9.0 mph NNW14.5 kmh NNW 12.0 mph19.3 kmh 29.85 in1010.8 mb 0.00 in0.0 mm 0.00 in0.0 mm 0.22 in5.6 mm
11:57 PM 44.1°F6.7°C 40.5°F4.7°C 87% 9.0 mph NNW14.5 kmh NNW 12.0 mph19.3 kmh 29.85 in1010.8 mb 0.00 in0.0 mm 0.00 in0.0 mm 0.22 in5.6 mm